<?xml version="1.0" encoding="UTF-8" standalone="no" ?>
<gpx xmlns="http://www.topografix.com/GPX/1/1" xmlns:xsi="http://www.w3.org/2001/XMLSchema-instance" xsi:schemaLocation="http://www.topografix.com/GPX/1/1 http://www.topografix.com/GPX/1/1/gpx.xsd" version="1.1" creator="VisuGPX - https://www.visugpx.com">
  <metadata>
    <name>Col du Vallonnet</name>
    <desc><![CDATA[Rando à ski promenade au départ deFouillouse]]></desc>
  </metadata>
  <trk>
    <name><![CDATA[J1]]></name>
    <trkseg>
      <trkpt lat="44.52474" lon="6.79639">
        <ele>1899.7023925781</ele>
        <time>2011-01-14T09:50:09Z</time>
      </trkpt>
      <trkpt lat="44.52478" lon="6.7964">
        <ele>1899.7023925781</ele>
        <time>2011-01-14T09:50:27Z</time>
      </trkpt>
      <trkpt lat="44.52478" lon="6.7964">
        <ele>1897.7797851562</ele>
        <time>2011-01-14T09:50:52Z</time>
      </trkpt>
      <trkpt lat="44.52477" lon="6.7964">
        <ele>1899.2216796875</ele>
        <time>2011-01-14T09:52:46Z</time>
      </trkpt>
      <trkpt lat="44.52475" lon="6.79641">
        <ele>1898.7409667969</ele>
        <time>2011-01-14T09:52:57Z</time>
      </trkpt>
      <trkpt lat="44.52474" lon="6.79644">
        <ele>1899.2216796875</ele>
        <time>2011-01-14T09:53:01Z</time>
      </trkpt>
      <trkpt lat="44.52473" lon="6.79651">
        <ele>1899.2216796875</ele>
        <time>2011-01-14T09:53:09Z</time>
      </trkpt>
      <trkpt lat="44.52473" lon="6.79656">
        <ele>1898.7409667969</ele>
        <time>2011-01-14T09:53:12Z</time>
      </trkpt>
      <trkpt lat="44.5247" lon="6.79686">
        <ele>1896.337890625</ele>
        <time>2011-01-14T09:53:28Z</time>
      </trkpt>
      <trkpt lat="44.52471" lon="6.79691">
        <ele>1896.818359375</ele>
        <time>2011-01-14T09:53:31Z</time>
      </trkpt>
      <trkpt lat="44.52482" lon="6.79718">
        <ele>1898.7409667969</ele>
        <time>2011-01-14T09:53:52Z</time>
      </trkpt>
      <trkpt lat="44.52495" lon="6.79748">
        <ele>1900.6638183594</ele>
        <time>2011-01-14T09:54:15Z</time>
      </trkpt>
      <trkpt lat="44.52503" lon="6.79776">
        <ele>1902.5864257812</ele>
        <time>2011-01-14T09:54:36Z</time>
      </trkpt>
      <trkpt lat="44.5251" lon="6.79808">
        <ele>1904.9897460938</ele>
        <time>2011-01-14T09:54:59Z</time>
      </trkpt>
      <trkpt lat="44.52516" lon="6.79838">
        <ele>1906.9123535156</ele>
        <time>2011-01-14T09:55:21Z</time>
      </trkpt>
      <trkpt lat="44.52521" lon="6.79868">
        <ele>1908.8349609375</ele>
        <time>2011-01-14T09:55:45Z</time>
      </trkpt>
      <trkpt lat="44.52529" lon="6.79894">
        <ele>1910.2768554688</ele>
        <time>2011-01-14T09:56:08Z</time>
      </trkpt>
      <trkpt lat="44.52538" lon="6.79931">
        <ele>1909.7961425781</ele>
        <time>2011-01-14T09:56:34Z</time>
      </trkpt>
      <trkpt lat="44.52543" lon="6.79967">
        <ele>1909.3156738281</ele>
        <time>2011-01-14T09:56:58Z</time>
      </trkpt>
      <trkpt lat="44.5255" lon="6.8">
        <ele>1909.7961425781</ele>
        <time>2011-01-14T09:57:20Z</time>
      </trkpt>
      <trkpt lat="44.52556" lon="6.80035">
        <ele>1909.3156738281</ele>
        <time>2011-01-14T09:57:42Z</time>
      </trkpt>
      <trkpt lat="44.52553" lon="6.80079">
        <ele>1909.3156738281</ele>
        <time>2011-01-14T09:58:09Z</time>
      </trkpt>
      <trkpt lat="44.52553" lon="6.80114">
        <ele>1910.2768554688</ele>
        <time>2011-01-14T09:58:33Z</time>
      </trkpt>
      <trkpt lat="44.52554" lon="6.80126">
        <ele>1910.7575683594</ele>
        <time>2011-01-14T09:58:45Z</time>
      </trkpt>
      <trkpt lat="44.5256" lon="6.80148">
        <ele>1913.1608886719</ele>
        <time>2011-01-14T09:59:03Z</time>
      </trkpt>
      <trkpt lat="44.52559" lon="6.80155">
        <ele>1912.6801757812</ele>
        <time>2011-01-14T09:59:08Z</time>
      </trkpt>
      <trkpt lat="44.52568" lon="6.8017">
        <ele>1914.1220703125</ele>
        <time>2011-01-14T09:59:26Z</time>
      </trkpt>
      <trkpt lat="44.52571" lon="6.8018">
        <ele>1915.0834960938</ele>
        <time>2011-01-14T09:59:41Z</time>
      </trkpt>
      <trkpt lat="44.52571" lon="6.80181">
        <ele>1914.6027832031</ele>
        <time>2011-01-14T10:00:07Z</time>
      </trkpt>
      <trkpt lat="44.52571" lon="6.80181">
        <ele>1914.6027832031</ele>
        <time>2011-01-14T10:00:22Z</time>
      </trkpt>
      <trkpt lat="44.52571" lon="6.80181">
        <ele>1915.0834960938</ele>
        <time>2011-01-14T10:00:48Z</time>
      </trkpt>
      <trkpt lat="44.5257" lon="6.80182">
        <ele>1913.1608886719</ele>
        <time>2011-01-14T10:01:18Z</time>
      </trkpt>
      <trkpt lat="44.5257" lon="6.80182">
        <ele>1911.23828125</ele>
        <time>2011-01-14T10:01:36Z</time>
      </trkpt>
      <trkpt lat="44.5257" lon="6.80182">
        <ele>1912.6801757812</ele>
        <time>2011-01-14T10:01:38Z</time>
      </trkpt>
      <trkpt lat="44.52569" lon="6.80179">
        <ele>1914.1220703125</ele>
        <time>2011-01-14T10:02:39Z</time>
      </trkpt>
      <trkpt lat="44.52568" lon="6.80179">
        <ele>1913.1608886719</ele>
        <time>2011-01-14T10:03:28Z</time>
      </trkpt>
      <trkpt lat="44.52568" lon="6.8018">
        <ele>1913.1608886719</ele>
        <time>2011-01-14T10:04:01Z</time>
      </trkpt>
      <trkpt lat="44.52569" lon="6.80186">
        <ele>1913.1608886719</ele>
        <time>2011-01-14T10:04:06Z</time>
      </trkpt>
      <trkpt lat="44.52575" lon="6.80215">
        <ele>1913.1608886719</ele>
        <time>2011-01-14T10:04:26Z</time>
      </trkpt>
      <trkpt lat="44.52584" lon="6.80245">
        <ele>1913.6413574219</ele>
        <time>2011-01-14T10:04:48Z</time>
      </trkpt>
      <trkpt lat="44.52593" lon="6.80272">
        <ele>1913.1608886719</ele>
        <time>2011-01-14T10:05:08Z</time>
      </trkpt>
      <trkpt lat="44.52601" lon="6.80304">
        <ele>1913.1608886719</ele>
        <time>2011-01-14T10:05:31Z</time>
      </trkpt>
      <trkpt lat="44.52602" lon="6.80324">
        <ele>1914.6027832031</ele>
        <time>2011-01-14T10:05:58Z</time>
      </trkpt>
      <trkpt lat="44.52601" lon="6.80331">
        <ele>1914.6027832031</ele>
        <time>2011-01-14T10:06:18Z</time>
      </trkpt>
      <trkpt lat="44.52603" lon="6.80364">
        <ele>1916.5256347656</ele>
        <time>2011-01-14T10:06:47Z</time>
      </trkpt>
      <trkpt lat="44.52603" lon="6.80402">
        <ele>1916.044921875</ele>
        <time>2011-01-14T10:07:10Z</time>
      </trkpt>
      <trkpt lat="44.52606" lon="6.80438">
        <ele>1917.0063476562</ele>
        <time>2011-01-14T10:07:37Z</time>
      </trkpt>
      <trkpt lat="44.52594" lon="6.80481">
        <ele>1919.4096679688</ele>
        <time>2011-01-14T10:08:15Z</time>
      </trkpt>
      <trkpt lat="44.52589" lon="6.80501">
        <ele>1922.7741699219</ele>
        <time>2011-01-14T10:08:37Z</time>
      </trkpt>
      <trkpt lat="44.52582" lon="6.80519">
        <ele>1924.6967773438</ele>
        <time>2011-01-14T10:09:00Z</time>
      </trkpt>
      <trkpt lat="44.52574" lon="6.80543">
        <ele>1925.1772460938</ele>
        <time>2011-01-14T10:09:21Z</time>
      </trkpt>
      <trkpt lat="44.52571" lon="6.80564">
        <ele>1927.1000976562</ele>
        <time>2011-01-14T10:09:44Z</time>
      </trkpt>
      <trkpt lat="44.5257" lon="6.80572">
        <ele>1926.138671875</ele>
        <time>2011-01-14T10:10:13Z</time>
      </trkpt>
      <trkpt lat="44.5257" lon="6.80571">
        <ele>1926.138671875</ele>
        <time>2011-01-14T10:10:48Z</time>
      </trkpt>
      <trkpt lat="44.52568" lon="6.8058">
        <ele>1926.138671875</ele>
        <time>2011-01-14T10:11:11Z</time>
      </trkpt>
      <trkpt lat="44.52567" lon="6.8061">
        <ele>1927.5805664062</ele>
        <time>2011-01-14T10:11:41Z</time>
      </trkpt>
      <trkpt lat="44.52565" lon="6.80625">
        <ele>1927.5805664062</ele>
        <time>2011-01-14T10:11:59Z</time>
      </trkpt>
      <trkpt lat="44.52559" lon="6.80658">
        <ele>1927.1000976562</ele>
        <time>2011-01-14T10:12:20Z</time>
      </trkpt>
      <trkpt lat="44.52552" lon="6.80683">
        <ele>1926.6193847656</ele>
        <time>2011-01-14T10:12:37Z</time>
      </trkpt>
      <trkpt lat="44.52542" lon="6.80718">
        <ele>1927.1000976562</ele>
        <time>2011-01-14T10:13:00Z</time>
      </trkpt>
      <trkpt lat="44.52528" lon="6.80749">
        <ele>1926.138671875</ele>
        <time>2011-01-14T10:13:22Z</time>
      </trkpt>
      <trkpt lat="44.52512" lon="6.80768">
        <ele>1927.5805664062</ele>
        <time>2011-01-14T10:13:47Z</time>
      </trkpt>
      <trkpt lat="44.52502" lon="6.80789">
        <ele>1929.5031738281</ele>
        <time>2011-01-14T10:14:16Z</time>
      </trkpt>
      <trkpt lat="44.52502" lon="6.80788">
        <ele>1929.5031738281</ele>
        <time>2011-01-14T10:14:53Z</time>
      </trkpt>
      <trkpt lat="44.52497" lon="6.80804">
        <ele>1931.42578125</ele>
        <time>2011-01-14T10:15:10Z</time>
      </trkpt>
      <trkpt lat="44.52495" lon="6.80806">
        <ele>1932.3874511719</ele>
        <time>2011-01-14T10:15:13Z</time>
      </trkpt>
      <trkpt lat="44.52483" lon="6.80825">
        <ele>1935.751953125</ele>
        <time>2011-01-14T10:15:37Z</time>
      </trkpt>
      <trkpt lat="44.5247" lon="6.80843">
        <ele>1939.1164550781</ele>
        <time>2011-01-14T10:16:04Z</time>
      </trkpt>
      <trkpt lat="44.52461" lon="6.80863">
        <ele>1942.4812011719</ele>
        <time>2011-01-14T10:16:30Z</time>
      </trkpt>
      <trkpt lat="44.5245" lon="6.80874">
        <ele>1944.8842773438</ele>
        <time>2011-01-14T10:16:53Z</time>
      </trkpt>
      <trkpt lat="44.52438" lon="6.80894">
        <ele>1948.2490234375</ele>
        <time>2011-01-14T10:17:24Z</time>
      </trkpt>
      <trkpt lat="44.52426" lon="6.8091">
        <ele>1951.6137695312</ele>
        <time>2011-01-14T10:17:52Z</time>
      </trkpt>
      <trkpt lat="44.5241" lon="6.80927">
        <ele>1953.0556640625</ele>
        <time>2011-01-14T10:18:22Z</time>
      </trkpt>
      <trkpt lat="44.52409" lon="6.80929">
        <ele>1953.0556640625</ele>
        <time>2011-01-14T10:18:50Z</time>
      </trkpt>
      <trkpt lat="44.52407" lon="6.80932">
        <ele>1953.0556640625</ele>
        <time>2011-01-14T10:20:02Z</time>
      </trkpt>
      <trkpt lat="44.52396" lon="6.80946">
        <ele>1953.5363769531</ele>
        <time>2011-01-14T10:20:23Z</time>
      </trkpt>
      <trkpt lat="44.52377" lon="6.80961">
        <ele>1955.458984375</ele>
        <time>2011-01-14T10:20:54Z</time>
      </trkpt>
      <trkpt lat="44.52372" lon="6.80972">
        <ele>1955.939453125</ele>
        <time>2011-01-14T10:21:14Z</time>
      </trkpt>
      <trkpt lat="44.52364" lon="6.8099">
        <ele>1959.3041992188</ele>
        <time>2011-01-14T10:21:41Z</time>
      </trkpt>
      <trkpt lat="44.52353" lon="6.81001">
        <ele>1962.6687011719</ele>
        <time>2011-01-14T10:22:08Z</time>
      </trkpt>
      <trkpt lat="44.52345" lon="6.81019">
        <ele>1966.0334472656</ele>
        <time>2011-01-14T10:22:34Z</time>
      </trkpt>
      <trkpt lat="44.52339" lon="6.81038">
        <ele>1968.9174804688</ele>
        <time>2011-01-14T10:23:03Z</time>
      </trkpt>
      <trkpt lat="44.52337" lon="6.81051">
        <ele>1971.3205566406</ele>
        <time>2011-01-14T10:23:26Z</time>
      </trkpt>
      <trkpt lat="44.52334" lon="6.81064">
        <ele>1972.7626953125</ele>
        <time>2011-01-14T10:23:44Z</time>
      </trkpt>
      <trkpt lat="44.52329" lon="6.81076">
        <ele>1974.6853027344</ele>
        <time>2011-01-14T10:24:01Z</time>
      </trkpt>
      <trkpt lat="44.5232" lon="6.81092">
        <ele>1977.5690917969</ele>
        <time>2011-01-14T10:24:23Z</time>
      </trkpt>
      <trkpt lat="44.52312" lon="6.81107">
        <ele>1980.9340820312</ele>
        <time>2011-01-14T10:24:47Z</time>
      </trkpt>
      <trkpt lat="44.52309" lon="6.81114">
        <ele>1981.4145507812</ele>
        <time>2011-01-14T10:24:59Z</time>
      </trkpt>
      <trkpt lat="44.52306" lon="6.81129">
        <ele>1982.8564453125</ele>
        <time>2011-01-14T10:25:16Z</time>
      </trkpt>
      <trkpt lat="44.523" lon="6.81138">
        <ele>1984.2985839844</ele>
        <time>2011-01-14T10:25:32Z</time>
      </trkpt>
      <trkpt lat="44.52294" lon="6.81146">
        <ele>1985.7404785156</ele>
        <time>2011-01-14T10:25:53Z</time>
      </trkpt>
      <trkpt lat="44.52284" lon="6.81162">
        <ele>1987.1823730469</ele>
        <time>2011-01-14T10:26:16Z</time>
      </trkpt>
      <trkpt lat="44.52273" lon="6.81177">
        <ele>1990.06640625</ele>
        <time>2011-01-14T10:26:41Z</time>
      </trkpt>
      <trkpt lat="44.52264" lon="6.81189">
        <ele>1991.5083007812</ele>
        <time>2011-01-14T10:27:01Z</time>
      </trkpt>
      <trkpt lat="44.52256" lon="6.81204">
        <ele>1994.3920898438</ele>
        <time>2011-01-14T10:27:23Z</time>
      </trkpt>
      <trkpt lat="44.52245" lon="6.81217">
        <ele>1997.2763671875</ele>
        <time>2011-01-14T10:27:46Z</time>
      </trkpt>
      <trkpt lat="44.52232" lon="6.81231">
        <ele>1999.6796875</ele>
        <time>2011-01-14T10:28:12Z</time>
      </trkpt>
      <trkpt lat="44.52222" lon="6.81248">
        <ele>2002.5634765625</ele>
        <time>2011-01-14T10:28:35Z</time>
      </trkpt>
      <trkpt lat="44.52211" lon="6.81261">
        <ele>2004.966796875</ele>
        <time>2011-01-14T10:28:58Z</time>
      </trkpt>
      <trkpt lat="44.52196" lon="6.81281">
        <ele>2007.8508300781</ele>
        <time>2011-01-14T10:29:29Z</time>
      </trkpt>
      <trkpt lat="44.52187" lon="6.81296">
        <ele>2009.2927246094</ele>
        <time>2011-01-14T10:29:48Z</time>
      </trkpt>
      <trkpt lat="44.52175" lon="6.81316">
        <ele>2011.6960449219</ele>
        <time>2011-01-14T10:30:15Z</time>
      </trkpt>
      <trkpt lat="44.52159" lon="6.81337">
        <ele>2014.580078125</ele>
        <time>2011-01-14T10:30:47Z</time>
      </trkpt>
      <trkpt lat="44.52144" lon="6.81349">
        <ele>2017.4638671875</ele>
        <time>2011-01-14T10:31:13Z</time>
      </trkpt>
      <trkpt lat="44.52123" lon="6.81359">
        <ele>2019.38671875</ele>
        <time>2011-01-14T10:31:42Z</time>
      </trkpt>
      <trkpt lat="44.52102" lon="6.81371">
        <ele>2021.7897949219</ele>
        <time>2011-01-14T10:32:10Z</time>
      </trkpt>
      <trkpt lat="44.52085" lon="6.81386">
        <ele>2024.1931152344</ele>
        <time>2011-01-14T10:32:33Z</time>
      </trkpt>
      <trkpt lat="44.52067" lon="6.81406">
        <ele>2025.6350097656</ele>
        <time>2011-01-14T10:32:57Z</time>
      </trkpt>
      <trkpt lat="44.52055" lon="6.81414">
        <ele>2026.5964355469</ele>
        <time>2011-01-14T10:33:12Z</time>
      </trkpt>
      <trkpt lat="44.52057" lon="6.81417">
        <ele>2026.1157226562</ele>
        <time>2011-01-14T10:33:38Z</time>
      </trkpt>
      <trkpt lat="44.52048" lon="6.81424">
        <ele>2027.0771484375</ele>
        <time>2011-01-14T10:33:51Z</time>
      </trkpt>
      <trkpt lat="44.5204" lon="6.81453">
        <ele>2028.5192871094</ele>
        <time>2011-01-14T10:34:13Z</time>
      </trkpt>
      <trkpt lat="44.52036" lon="6.81467">
        <ele>2028.5192871094</ele>
        <time>2011-01-14T10:34:24Z</time>
      </trkpt>
      <trkpt lat="44.52036" lon="6.81498">
        <ele>2029.9611816406</ele>
        <time>2011-01-14T10:34:46Z</time>
      </trkpt>
      <trkpt lat="44.5203" lon="6.81531">
        <ele>2031.8837890625</ele>
        <time>2011-01-14T10:35:11Z</time>
      </trkpt>
      <trkpt lat="44.52025" lon="6.81559">
        <ele>2033.3256835938</ele>
        <time>2011-01-14T10:35:33Z</time>
      </trkpt>
      <trkpt lat="44.52014" lon="6.8158">
        <ele>2035.7290039062</ele>
        <time>2011-01-14T10:35:56Z</time>
      </trkpt>
      <trkpt lat="44.51998" lon="6.81582">
        <ele>2039.0935058594</ele>
        <time>2011-01-14T10:36:17Z</time>
      </trkpt>
      <trkpt lat="44.51986" lon="6.81581">
        <ele>2041.9775390625</ele>
        <time>2011-01-14T10:36:38Z</time>
      </trkpt>
      <trkpt lat="44.51984" lon="6.81602">
        <ele>2044.8615722656</ele>
        <time>2011-01-14T10:36:59Z</time>
      </trkpt>
      <trkpt lat="44.51976" lon="6.81613">
        <ele>2047.7456054688</ele>
        <time>2011-01-14T10:37:18Z</time>
      </trkpt>
      <trkpt lat="44.51961" lon="6.81604">
        <ele>2050.6293945312</ele>
        <time>2011-01-14T10:37:42Z</time>
      </trkpt>
      <trkpt lat="44.51948" lon="6.81603">
        <ele>2053.994140625</ele>
        <time>2011-01-14T10:38:04Z</time>
      </trkpt>
      <trkpt lat="44.51938" lon="6.81616">
        <ele>2057.3586425781</ele>
        <time>2011-01-14T10:38:27Z</time>
      </trkpt>
      <trkpt lat="44.51935" lon="6.81638">
        <ele>2060.7233886719</ele>
        <time>2011-01-14T10:38:55Z</time>
      </trkpt>
      <trkpt lat="44.51923" lon="6.81643">
        <ele>2063.6071777344</ele>
        <time>2011-01-14T10:39:17Z</time>
      </trkpt>
      <trkpt lat="44.51919" lon="6.81644">
        <ele>2064.087890625</ele>
        <time>2011-01-14T10:39:42Z</time>
      </trkpt>
      <trkpt lat="44.51916" lon="6.81644">
        <ele>2064.5686035156</ele>
        <time>2011-01-14T10:40:10Z</time>
      </trkpt>
      <trkpt lat="44.51904" lon="6.81648">
        <ele>2066.0104980469</ele>
        <time>2011-01-14T10:40:37Z</time>
      </trkpt>
      <trkpt lat="44.51902" lon="6.81653">
        <ele>2066.9719238281</ele>
        <time>2011-01-14T10:40:59Z</time>
      </trkpt>
      <trkpt lat="44.5189" lon="6.81666">
        <ele>2069.3752441406</ele>
        <time>2011-01-14T10:41:23Z</time>
      </trkpt>
      <trkpt lat="44.51895" lon="6.81676">
        <ele>2071.7783203125</ele>
        <time>2011-01-14T10:41:42Z</time>
      </trkpt>
      <trkpt lat="44.51905" lon="6.81697">
        <ele>2074.6623535156</ele>
        <time>2011-01-14T10:42:09Z</time>
      </trkpt>
      <trkpt lat="44.519" lon="6.81717">
        <ele>2077.5463867188</ele>
        <time>2011-01-14T10:42:38Z</time>
      </trkpt>
      <trkpt lat="44.5189" lon="6.81719">
        <ele>2078.98828125</ele>
        <time>2011-01-14T10:42:54Z</time>
      </trkpt>
      <trkpt lat="44.5188" lon="6.81719">
        <ele>2081.3916015625</ele>
        <time>2011-01-14T10:43:10Z</time>
      </trkpt>
      <trkpt lat="44.51875" lon="6.81733">
        <ele>2083.3142089844</ele>
        <time>2011-01-14T10:43:32Z</time>
      </trkpt>
      <trkpt lat="44.51876" lon="6.81752">
        <ele>2085.7175292969</ele>
        <time>2011-01-14T10:43:56Z</time>
      </trkpt>
      <trkpt lat="44.51869" lon="6.81762">
        <ele>2087.6401367188</ele>
        <time>2011-01-14T10:44:16Z</time>
      </trkpt>
      <trkpt lat="44.51854" lon="6.81759">
        <ele>2089.5627441406</ele>
        <time>2011-01-14T10:44:38Z</time>
      </trkpt>
      <trkpt lat="44.51844" lon="6.81765">
        <ele>2091.4853515625</ele>
        <time>2011-01-14T10:44:58Z</time>
      </trkpt>
      <trkpt lat="44.51838" lon="6.81779">
        <ele>2093.408203125</ele>
        <time>2011-01-14T10:45:17Z</time>
      </trkpt>
      <trkpt lat="44.51833" lon="6.8179">
        <ele>2095.8115234375</ele>
        <time>2011-01-14T10:45:34Z</time>
      </trkpt>
      <trkpt lat="44.51831" lon="6.81808">
        <ele>2098.2145996094</ele>
        <time>2011-01-14T10:45:58Z</time>
      </trkpt>
      <trkpt lat="44.51828" lon="6.81818">
        <ele>2099.6567382812</ele>
        <time>2011-01-14T10:46:13Z</time>
      </trkpt>
      <trkpt lat="44.51821" lon="6.81828">
        <ele>2102.0598144531</ele>
        <time>2011-01-14T10:46:30Z</time>
      </trkpt>
      <trkpt lat="44.51812" lon="6.81843">
        <ele>2104.4631347656</ele>
        <time>2011-01-14T10:46:54Z</time>
      </trkpt>
      <trkpt lat="44.51804" lon="6.81855">
        <ele>2107.3471679688</ele>
        <time>2011-01-14T10:47:14Z</time>
      </trkpt>
      <trkpt lat="44.51798" lon="6.81867">
        <ele>2109.2700195312</ele>
        <time>2011-01-14T10:47:31Z</time>
      </trkpt>
      <trkpt lat="44.51793" lon="6.81882">
        <ele>2112.1538085938</ele>
        <time>2011-01-14T10:47:52Z</time>
      </trkpt>
      <trkpt lat="44.51785" lon="6.819">
        <ele>2115.5185546875</ele>
        <time>2011-01-14T10:48:16Z</time>
      </trkpt>
      <trkpt lat="44.5178" lon="6.81916">
        <ele>2118.8830566406</ele>
        <time>2011-01-14T10:48:44Z</time>
      </trkpt>
      <trkpt lat="44.51768" lon="6.81936">
        <ele>2121.7668457031</ele>
        <time>2011-01-14T10:49:16Z</time>
      </trkpt>
      <trkpt lat="44.51758" lon="6.81951">
        <ele>2123.689453125</ele>
        <time>2011-01-14T10:49:39Z</time>
      </trkpt>
      <trkpt lat="44.51751" lon="6.81967">
        <ele>2126.5737304688</ele>
        <time>2011-01-14T10:50:02Z</time>
      </trkpt>
      <trkpt lat="44.51744" lon="6.8199">
        <ele>2129.9382324219</ele>
        <time>2011-01-14T10:50:31Z</time>
      </trkpt>
      <trkpt lat="44.51732" lon="6.82019">
        <ele>2133.302734375</ele>
        <time>2011-01-14T10:51:03Z</time>
      </trkpt>
      <trkpt lat="44.51726" lon="6.82044">
        <ele>2134.7448730469</ele>
        <time>2011-01-14T10:51:31Z</time>
      </trkpt>
      <trkpt lat="44.51721" lon="6.82061">
        <ele>2138.109375</ele>
        <time>2011-01-14T10:51:55Z</time>
      </trkpt>
      <trkpt lat="44.51716" lon="6.82091">
        <ele>2140.9934082031</ele>
        <time>2011-01-14T10:52:31Z</time>
      </trkpt>
      <trkpt lat="44.51718" lon="6.82107">
        <ele>2143.8774414062</ele>
        <time>2011-01-14T10:52:52Z</time>
      </trkpt>
      <trkpt lat="44.51715" lon="6.8212">
        <ele>2147.2419433594</ele>
        <time>2011-01-14T10:53:14Z</time>
      </trkpt>
      <trkpt lat="44.51711" lon="6.82133">
        <ele>2150.1259765625</ele>
        <time>2011-01-14T10:53:35Z</time>
      </trkpt>
      <trkpt lat="44.51722" lon="6.82138">
        <ele>2152.5290527344</ele>
        <time>2011-01-14T10:53:58Z</time>
      </trkpt>
      <trkpt lat="44.51726" lon="6.82138">
        <ele>2153.4904785156</ele>
        <time>2011-01-14T10:54:30Z</time>
      </trkpt>
      <trkpt lat="44.51741" lon="6.82147">
        <ele>2156.3745117188</ele>
        <time>2011-01-14T10:54:57Z</time>
      </trkpt>
      <trkpt lat="44.51747" lon="6.82163">
        <ele>2159.7390136719</ele>
        <time>2011-01-14T10:55:24Z</time>
      </trkpt>
      <trkpt lat="44.51747" lon="6.82179">
        <ele>2162.623046875</ele>
        <time>2011-01-14T10:55:46Z</time>
      </trkpt>
      <trkpt lat="44.51748" lon="6.82194">
        <ele>2165.9875488281</ele>
        <time>2011-01-14T10:56:09Z</time>
      </trkpt>
      <trkpt lat="44.51749" lon="6.82208">
        <ele>2168.8715820312</ele>
        <time>2011-01-14T10:56:32Z</time>
      </trkpt>
      <trkpt lat="44.51746" lon="6.8222">
        <ele>2171.7553710938</ele>
        <time>2011-01-14T10:56:51Z</time>
      </trkpt>
      <trkpt lat="44.51742" lon="6.82229">
        <ele>2173.1977539062</ele>
        <time>2011-01-14T10:57:09Z</time>
      </trkpt>
      <trkpt lat="44.51735" lon="6.82245">
        <ele>2176.5622558594</ele>
        <time>2011-01-14T10:57:31Z</time>
      </trkpt>
      <trkpt lat="44.51733" lon="6.82251">
        <ele>2178.0041503906</ele>
        <time>2011-01-14T10:57:53Z</time>
      </trkpt>
      <trkpt lat="44.51731" lon="6.82265">
        <ele>2181.3686523438</ele>
        <time>2011-01-14T10:58:15Z</time>
      </trkpt>
      <trkpt lat="44.5173" lon="6.82284">
        <ele>2184.7333984375</ele>
        <time>2011-01-14T10:58:43Z</time>
      </trkpt>
      <trkpt lat="44.5172" lon="6.82299">
        <ele>2188.0981445312</ele>
        <time>2011-01-14T10:59:10Z</time>
      </trkpt>
      <trkpt lat="44.51714" lon="6.8231">
        <ele>2190.0207519531</ele>
        <time>2011-01-14T10:59:31Z</time>
      </trkpt>
      <trkpt lat="44.51709" lon="6.82325">
        <ele>2193.3852539062</ele>
        <time>2011-01-14T10:59:54Z</time>
      </trkpt>
      <trkpt lat="44.51697" lon="6.82342">
        <ele>2196.2692871094</ele>
        <time>2011-01-14T11:00:24Z</time>
      </trkpt>
      <trkpt lat="44.51683" lon="6.82357">
        <ele>2199.6337890625</ele>
        <time>2011-01-14T11:00:55Z</time>
      </trkpt>
      <trkpt lat="44.51676" lon="6.82367">
        <ele>2201.5563964844</ele>
        <time>2011-01-14T11:01:16Z</time>
      </trkpt>
      <trkpt lat="44.51668" lon="6.82374">
        <ele>2202.9982910156</ele>
        <time>2011-01-14T11:01:36Z</time>
      </trkpt>
      <trkpt lat="44.51662" lon="6.82384">
        <ele>2203.9597167969</ele>
        <time>2011-01-14T11:01:54Z</time>
      </trkpt>
      <trkpt lat="44.51655" lon="6.82396">
        <ele>2205.4018554688</ele>
        <time>2011-01-14T11:02:21Z</time>
      </trkpt>
      <trkpt lat="44.51648" lon="6.82411">
        <ele>2208.7663574219</ele>
        <time>2011-01-14T11:02:45Z</time>
      </trkpt>
      <trkpt lat="44.51639" lon="6.82428">
        <ele>2212.130859375</ele>
        <time>2011-01-14T11:03:13Z</time>
      </trkpt>
      <trkpt lat="44.51629" lon="6.8245">
        <ele>2213.5727539062</ele>
        <time>2011-01-14T11:03:47Z</time>
      </trkpt>
      <trkpt lat="44.51614" lon="6.82484">
        <ele>2216.4567871094</ele>
        <time>2011-01-14T11:04:25Z</time>
      </trkpt>
      <trkpt lat="44.51598" lon="6.82511">
        <ele>2218.3793945312</ele>
        <time>2011-01-14T11:05:01Z</time>
      </trkpt>
      <trkpt lat="44.51585" lon="6.82529">
        <ele>2221.744140625</ele>
        <time>2011-01-14T11:05:34Z</time>
      </trkpt>
      <trkpt lat="44.51575" lon="6.82551">
        <ele>2224.6281738281</ele>
        <time>2011-01-14T11:06:06Z</time>
      </trkpt>
      <trkpt lat="44.51568" lon="6.82564">
        <ele>2227.0314941406</ele>
        <time>2011-01-14T11:06:28Z</time>
      </trkpt>
      <trkpt lat="44.51559" lon="6.82586">
        <ele>2228.9538574219</ele>
        <time>2011-01-14T11:06:58Z</time>
      </trkpt>
      <trkpt lat="44.51553" lon="6.82607">
        <ele>2229.4345703125</ele>
        <time>2011-01-14T11:07:19Z</time>
      </trkpt>
      <trkpt lat="44.51545" lon="6.82623">
        <ele>2231.3571777344</ele>
        <time>2011-01-14T11:07:40Z</time>
      </trkpt>
      <trkpt lat="44.51537" lon="6.82641">
        <ele>2232.7990722656</ele>
        <time>2011-01-14T11:08:02Z</time>
      </trkpt>
      <trkpt lat="44.51531" lon="6.82657">
        <ele>2234.7219238281</ele>
        <time>2011-01-14T11:08:22Z</time>
      </trkpt>
      <trkpt lat="44.51524" lon="6.82676">
        <ele>2237.6059570312</ele>
        <time>2011-01-14T11:08:50Z</time>
      </trkpt>
      <trkpt lat="44.51518" lon="6.82689">
        <ele>2240.0092773438</ele>
        <time>2011-01-14T11:09:09Z</time>
      </trkpt>
      <trkpt lat="44.51506" lon="6.82704">
        <ele>2242.4125976562</ele>
        <time>2011-01-14T11:09:38Z</time>
      </trkpt>
      <trkpt lat="44.51499" lon="6.82706">
        <ele>2243.3737792969</ele>
        <time>2011-01-14T11:09:57Z</time>
      </trkpt>
      <trkpt lat="44.51499" lon="6.82707">
        <ele>2243.3737792969</ele>
        <time>2011-01-14T11:10:25Z</time>
      </trkpt>
      <trkpt lat="44.51499" lon="6.82706">
        <ele>2241.9318847656</ele>
        <time>2011-01-14T11:10:50Z</time>
      </trkpt>
      <trkpt lat="44.51499" lon="6.82706">
        <ele>2243.8544921875</ele>
        <time>2011-01-14T11:12:21Z</time>
      </trkpt>
      <trkpt lat="44.51498" lon="6.82705">
        <ele>2242.4125976562</ele>
        <time>2011-01-14T11:12:59Z</time>
      </trkpt>
      <trkpt lat="44.51497" lon="6.82704">
        <ele>2242.8930664062</ele>
        <time>2011-01-14T11:13:20Z</time>
      </trkpt>
      <trkpt lat="44.51498" lon="6.82704">
        <ele>2243.3737792969</ele>
        <time>2011-01-14T11:14:05Z</time>
      </trkpt>
      <trkpt lat="44.51497" lon="6.82704">
        <ele>2243.3737792969</ele>
        <time>2011-01-14T11:14:44Z</time>
      </trkpt>
      <trkpt lat="44.51498" lon="6.82704">
        <ele>2243.3737792969</ele>
        <time>2011-01-14T11:14:58Z</time>
      </trkpt>
      <trkpt lat="44.51502" lon="6.82687">
        <ele>2269.8100585938</ele>
        <time>2011-01-14T11:43:49Z</time>
      </trkpt>
      <trkpt lat="44.51502" lon="6.82694">
        <ele>2250.5834960938</ele>
        <time>2011-01-14T11:43:50Z</time>
      </trkpt>
      <trkpt lat="44.515" lon="6.82695">
        <ele>2242.4125976562</ele>
        <time>2011-01-14T11:43:51Z</time>
      </trkpt>
      <trkpt lat="44.51489" lon="6.82703">
        <ele>2241.451171875</ele>
        <time>2011-01-14T11:43:53Z</time>
      </trkpt>
      <trkpt lat="44.51496" lon="6.82704">
        <ele>2241.451171875</ele>
        <time>2011-01-14T11:44:03Z</time>
      </trkpt>
      <trkpt lat="44.51496" lon="6.82703">
        <ele>2240.9704589844</ele>
        <time>2011-01-14T11:44:15Z</time>
      </trkpt>
      <trkpt lat="44.51498" lon="6.82704">
        <ele>2240.4897460938</ele>
        <time>2011-01-14T11:44:28Z</time>
      </trkpt>
      <trkpt lat="44.51497" lon="6.82705">
        <ele>2240.9704589844</ele>
        <time>2011-01-14T11:44:45Z</time>
      </trkpt>
      <trkpt lat="44.51498" lon="6.82706">
        <ele>2240.9704589844</ele>
        <time>2011-01-14T11:45:05Z</time>
      </trkpt>
      <trkpt lat="44.51497" lon="6.82706">
        <ele>2240.9704589844</ele>
        <time>2011-01-14T11:45:33Z</time>
      </trkpt>
      <trkpt lat="44.51497" lon="6.82707">
        <ele>2240.9704589844</ele>
        <time>2011-01-14T11:45:52Z</time>
      </trkpt>
      <trkpt lat="44.51497" lon="6.82708">
        <ele>2240.9704589844</ele>
        <time>2011-01-14T11:46:37Z</time>
      </trkpt>
      <trkpt lat="44.51494" lon="6.82721">
        <ele>2241.451171875</ele>
        <time>2011-01-14T11:47:24Z</time>
      </trkpt>
      <trkpt lat="44.51483" lon="6.82748">
        <ele>2243.3737792969</ele>
        <time>2011-01-14T11:48:01Z</time>
      </trkpt>
      <trkpt lat="44.51474" lon="6.82769">
        <ele>2246.2578125</ele>
        <time>2011-01-14T11:48:36Z</time>
      </trkpt>
      <trkpt lat="44.51465" lon="6.82791">
        <ele>2247.2189941406</ele>
        <time>2011-01-14T11:49:04Z</time>
      </trkpt>
      <trkpt lat="44.51456" lon="6.82811">
        <ele>2248.6608886719</ele>
        <time>2011-01-14T11:49:29Z</time>
      </trkpt>
      <trkpt lat="44.5145" lon="6.82824">
        <ele>2251.544921875</ele>
        <time>2011-01-14T11:49:54Z</time>
      </trkpt>
      <trkpt lat="44.5144" lon="6.82849">
        <ele>2254.4289550781</ele>
        <time>2011-01-14T11:50:29Z</time>
      </trkpt>
      <trkpt lat="44.51433" lon="6.82867">
        <ele>2257.7937011719</ele>
        <time>2011-01-14T11:50:58Z</time>
      </trkpt>
      <trkpt lat="44.51424" lon="6.82896">
        <ele>2260.1967773438</ele>
        <time>2011-01-14T11:51:33Z</time>
      </trkpt>
      <trkpt lat="44.51416" lon="6.82918">
        <ele>2263.5612792969</ele>
        <time>2011-01-14T11:52:02Z</time>
      </trkpt>
      <trkpt lat="44.51407" lon="6.82952">
        <ele>2263.5612792969</ele>
        <time>2011-01-14T11:52:33Z</time>
      </trkpt>
      <trkpt lat="44.51395" lon="6.82979">
        <ele>2264.5227050781</ele>
        <time>2011-01-14T11:53:04Z</time>
      </trkpt>
      <trkpt lat="44.51384" lon="6.83002">
        <ele>2267.4064941406</ele>
        <time>2011-01-14T11:53:36Z</time>
      </trkpt>
      <trkpt lat="44.51373" lon="6.83032">
        <ele>2270.771484375</ele>
        <time>2011-01-14T11:54:14Z</time>
      </trkpt>
      <trkpt lat="44.5137" lon="6.83038">
        <ele>2271.251953125</ele>
        <time>2011-01-14T11:54:35Z</time>
      </trkpt>
      <trkpt lat="44.51361" lon="6.83061">
        <ele>2272.2133789062</ele>
        <time>2011-01-14T11:54:59Z</time>
      </trkpt>
      <trkpt lat="44.51348" lon="6.83088">
        <ele>2273.6552734375</ele>
        <time>2011-01-14T11:55:29Z</time>
      </trkpt>
      <trkpt lat="44.51338" lon="6.83113">
        <ele>2275.0971679688</ele>
        <time>2011-01-14T11:55:57Z</time>
      </trkpt>
      <trkpt lat="44.51329" lon="6.83134">
        <ele>2276.05859375</ele>
        <time>2011-01-14T11:56:20Z</time>
      </trkpt>
      <trkpt lat="44.51324" lon="6.83139">
        <ele>2276.05859375</ele>
        <time>2011-01-14T11:56:26Z</time>
      </trkpt>
      <trkpt lat="44.51312" lon="6.83159">
        <ele>2275.5778808594</ele>
        <time>2011-01-14T11:56:49Z</time>
      </trkpt>
      <trkpt lat="44.51305" lon="6.83177">
        <ele>2277.0200195312</ele>
        <time>2011-01-14T11:57:11Z</time>
      </trkpt>
      <trkpt lat="44.51292" lon="6.832">
        <ele>2278.4619140625</ele>
        <time>2011-01-14T11:57:39Z</time>
      </trkpt>
      <trkpt lat="44.51287" lon="6.83214">
        <ele>2278.9423828125</ele>
        <time>2011-01-14T11:57:57Z</time>
      </trkpt>
      <trkpt lat="44.51281" lon="6.83223">
        <ele>2280.3845214844</ele>
        <time>2011-01-14T11:58:13Z</time>
      </trkpt>
      <trkpt lat="44.51274" lon="6.83239">
        <ele>2281.8264160156</ele>
        <time>2011-01-14T11:58:35Z</time>
      </trkpt>
      <trkpt lat="44.51272" lon="6.83253">
        <ele>2282.3071289062</ele>
        <time>2011-01-14T11:58:51Z</time>
      </trkpt>
      <trkpt lat="44.51266" lon="6.83263">
        <ele>2283.7490234375</ele>
        <time>2011-01-14T11:59:08Z</time>
      </trkpt>
      <trkpt lat="44.51257" lon="6.83279">
        <ele>2285.1911621094</ele>
        <time>2011-01-14T11:59:33Z</time>
      </trkpt>
      <trkpt lat="44.5125" lon="6.83294">
        <ele>2287.1137695312</ele>
        <time>2011-01-14T11:59:56Z</time>
      </trkpt>
      <trkpt lat="44.51243" lon="6.83311">
        <ele>2289.5170898438</ele>
        <time>2011-01-14T12:00:22Z</time>
      </trkpt>
      <trkpt lat="44.51236" lon="6.83326">
        <ele>2291.4396972656</ele>
        <time>2011-01-14T12:00:46Z</time>
      </trkpt>
      <trkpt lat="44.51227" lon="6.83341">
        <ele>2292.8815917969</ele>
        <time>2011-01-14T12:01:07Z</time>
      </trkpt>
      <trkpt lat="44.51219" lon="6.83359">
        <ele>2292.8815917969</ele>
        <time>2011-01-14T12:01:28Z</time>
      </trkpt>
      <trkpt lat="44.51211" lon="6.83376">
        <ele>2294.8041992188</ele>
        <time>2011-01-14T12:01:49Z</time>
      </trkpt>
      <trkpt lat="44.51196" lon="6.83404">
        <ele>2297.2075195312</ele>
        <time>2011-01-14T12:02:25Z</time>
      </trkpt>
      <trkpt lat="44.5118" lon="6.83431">
        <ele>2300.091796875</ele>
        <time>2011-01-14T12:02:56Z</time>
      </trkpt>
      <trkpt lat="44.51169" lon="6.83451">
        <ele>2302.4948730469</ele>
        <time>2011-01-14T12:03:19Z</time>
      </trkpt>
      <trkpt lat="44.51151" lon="6.83478">
        <ele>2304.8981933594</ele>
        <time>2011-01-14T12:03:51Z</time>
      </trkpt>
      <trkpt lat="44.51138" lon="6.83511">
        <ele>2306.3400878906</ele>
        <time>2011-01-14T12:04:22Z</time>
      </trkpt>
      <trkpt lat="44.51122" lon="6.83537">
        <ele>2309.7045898438</ele>
        <time>2011-01-14T12:04:47Z</time>
      </trkpt>
      <trkpt lat="44.5111" lon="6.8356">
        <ele>2311.6274414062</ele>
        <time>2011-01-14T12:05:11Z</time>
      </trkpt>
      <trkpt lat="44.51098" lon="6.8358">
        <ele>2313.5498046875</ele>
        <time>2011-01-14T12:05:37Z</time>
      </trkpt>
      <trkpt lat="44.51089" lon="6.83594">
        <ele>2316.9147949219</ele>
        <time>2011-01-14T12:05:57Z</time>
      </trkpt>
      <trkpt lat="44.51083" lon="6.83606">
        <ele>2317.8759765625</ele>
        <time>2011-01-14T12:06:18Z</time>
      </trkpt>
      <trkpt lat="44.51084" lon="6.83606">
        <ele>2318.3566894531</ele>
        <time>2011-01-14T12:06:44Z</time>
      </trkpt>
      <trkpt lat="44.51084" lon="6.83606">
        <ele>2318.3566894531</ele>
        <time>2011-01-14T12:07:42Z</time>
      </trkpt>
      <trkpt lat="44.51083" lon="6.8361">
        <ele>2319.3181152344</ele>
        <time>2011-01-14T12:08:06Z</time>
      </trkpt>
      <trkpt lat="44.51075" lon="6.83627">
        <ele>2318.8374023438</ele>
        <time>2011-01-14T12:08:24Z</time>
      </trkpt>
      <trkpt lat="44.51069" lon="6.83639">
        <ele>2316.4340820312</ele>
        <time>2011-01-14T12:08:33Z</time>
      </trkpt>
      <trkpt lat="44.51066" lon="6.83638">
        <ele>2316.4340820312</ele>
        <time>2011-01-14T12:08:43Z</time>
      </trkpt>
      <trkpt lat="44.51065" lon="6.83645">
        <ele>2318.3566894531</ele>
        <time>2011-01-14T12:08:54Z</time>
      </trkpt>
      <trkpt lat="44.51055" lon="6.83669">
        <ele>2320.279296875</ele>
        <time>2011-01-14T12:09:24Z</time>
      </trkpt>
      <trkpt lat="44.51052" lon="6.83689">
        <ele>2322.2019042969</ele>
        <time>2011-01-14T12:09:44Z</time>
      </trkpt>
      <trkpt lat="44.51049" lon="6.8371">
        <ele>2323.6437988281</ele>
        <time>2011-01-14T12:10:06Z</time>
      </trkpt>
      <trkpt lat="44.51048" lon="6.83715">
        <ele>2324.1245117188</ele>
        <time>2011-01-14T12:10:24Z</time>
      </trkpt>
      <trkpt lat="44.51047" lon="6.83738">
        <ele>2325.0856933594</ele>
        <time>2011-01-14T12:10:45Z</time>
      </trkpt>
      <trkpt lat="44.51046" lon="6.8375">
        <ele>2325.0856933594</ele>
        <time>2011-01-14T12:11:03Z</time>
      </trkpt>
      <trkpt lat="44.51046" lon="6.83753">
        <ele>2324.6052246094</ele>
        <time>2011-01-14T12:11:05Z</time>
      </trkpt>
      <trkpt lat="44.51036" lon="6.83769">
        <ele>2326.5278320312</ele>
        <time>2011-01-14T12:11:29Z</time>
      </trkpt>
      <trkpt lat="44.51029" lon="6.83783">
        <ele>2328.9309082031</ele>
        <time>2011-01-14T12:11:56Z</time>
      </trkpt>
      <trkpt lat="44.51029" lon="6.83797">
        <ele>2332.2958984375</ele>
        <time>2011-01-14T12:12:21Z</time>
      </trkpt>
      <trkpt lat="44.51034" lon="6.83812">
        <ele>2335.1796875</ele>
        <time>2011-01-14T12:12:42Z</time>
      </trkpt>
      <trkpt lat="44.51036" lon="6.83834">
        <ele>2336.6215820312</ele>
        <time>2011-01-14T12:13:07Z</time>
      </trkpt>
      <trkpt lat="44.51036" lon="6.8384">
        <ele>2337.1022949219</ele>
        <time>2011-01-14T12:13:35Z</time>
      </trkpt>
      <trkpt lat="44.51037" lon="6.8384">
        <ele>2333.7377929688</ele>
        <time>2011-01-14T12:13:41Z</time>
      </trkpt>
      <trkpt lat="44.51037" lon="6.8384">
        <ele>2333.7377929688</ele>
        <time>2011-01-14T12:13:42Z</time>
      </trkpt>
      <trkpt lat="44.51037" lon="6.8384">
        <ele>2335.6604003906</ele>
        <time>2011-01-14T12:13:44Z</time>
      </trkpt>
      <trkpt lat="44.51036" lon="6.83839">
        <ele>2336.6215820312</ele>
        <time>2011-01-14T12:15:38Z</time>
      </trkpt>
      <trkpt lat="44.51035" lon="6.83847">
        <ele>2337.1022949219</ele>
        <time>2011-01-14T12:16:21Z</time>
      </trkpt>
      <trkpt lat="44.51035" lon="6.83859">
        <ele>2338.0637207031</ele>
        <time>2011-01-14T12:16:35Z</time>
      </trkpt>
      <trkpt lat="44.51038" lon="6.83873">
        <ele>2341.4282226562</ele>
        <time>2011-01-14T12:16:56Z</time>
      </trkpt>
      <trkpt lat="44.51049" lon="6.8387">
        <ele>2342.8701171875</ele>
        <time>2011-01-14T12:17:12Z</time>
      </trkpt>
      <trkpt lat="44.51046" lon="6.83884">
        <ele>2344.7927246094</ele>
        <time>2011-01-14T12:17:31Z</time>
      </trkpt>
      <trkpt lat="44.5104" lon="6.83895">
        <ele>2346.7153320312</ele>
        <time>2011-01-14T12:17:48Z</time>
      </trkpt>
      <trkpt lat="44.51036" lon="6.83912">
        <ele>2348.6381835938</ele>
        <time>2011-01-14T12:18:13Z</time>
      </trkpt>
      <trkpt lat="44.5103" lon="6.8394">
        <ele>2351.0415039062</ele>
        <time>2011-01-14T12:18:42Z</time>
      </trkpt>
      <trkpt lat="44.51028" lon="6.83982">
        <ele>2352.0026855469</ele>
        <time>2011-01-14T12:19:20Z</time>
      </trkpt>
      <trkpt lat="44.51019" lon="6.84011">
        <ele>2352.4833984375</ele>
        <time>2011-01-14T12:19:45Z</time>
      </trkpt>
      <trkpt lat="44.51001" lon="6.84034">
        <ele>2355.3674316406</ele>
        <time>2011-01-14T12:20:16Z</time>
      </trkpt>
      <trkpt lat="44.50988" lon="6.84056">
        <ele>2356.3286132812</ele>
        <time>2011-01-14T12:20:43Z</time>
      </trkpt>
      <trkpt lat="44.50973" lon="6.84071">
        <ele>2356.8093261719</ele>
        <time>2011-01-14T12:21:06Z</time>
      </trkpt>
      <trkpt lat="44.50956" lon="6.84087">
        <ele>2357.2900390625</ele>
        <time>2011-01-14T12:21:27Z</time>
      </trkpt>
      <trkpt lat="44.50947" lon="6.84091">
        <ele>2360.173828125</ele>
        <time>2011-01-14T12:21:48Z</time>
      </trkpt>
      <trkpt lat="44.50942" lon="6.84099">
        <ele>2362.0964355469</ele>
        <time>2011-01-14T12:22:05Z</time>
      </trkpt>
      <trkpt lat="44.50928" lon="6.84114">
        <ele>2363.0578613281</ele>
        <time>2011-01-14T12:22:28Z</time>
      </trkpt>
      <trkpt lat="44.50907" lon="6.84115">
        <ele>2365.4614257812</ele>
        <time>2011-01-14T12:23:02Z</time>
      </trkpt>
      <trkpt lat="44.50894" lon="6.84115">
        <ele>2366.9033203125</ele>
        <time>2011-01-14T12:23:23Z</time>
      </trkpt>
      <trkpt lat="44.50883" lon="6.84121">
        <ele>2368.3452148438</ele>
        <time>2011-01-14T12:23:42Z</time>
      </trkpt>
      <trkpt lat="44.50882" lon="6.84133">
        <ele>2370.2678222656</ele>
        <time>2011-01-14T12:24:01Z</time>
      </trkpt>
      <trkpt lat="44.50878" lon="6.84148">
        <ele>2371.2290039062</ele>
        <time>2011-01-14T12:24:26Z</time>
      </trkpt>
      <trkpt lat="44.50875" lon="6.84161">
        <ele>2371.7097167969</ele>
        <time>2011-01-14T12:24:42Z</time>
      </trkpt>
      <trkpt lat="44.50871" lon="6.8417">
        <ele>2373.1518554688</ele>
        <time>2011-01-14T12:25:05Z</time>
      </trkpt>
      <trkpt lat="44.50862" lon="6.8418">
        <ele>2375.07421875</ele>
        <time>2011-01-14T12:25:32Z</time>
      </trkpt>
      <trkpt lat="44.50849" lon="6.84195">
        <ele>2378.4389648438</ele>
        <time>2011-01-14T12:26:02Z</time>
      </trkpt>
      <trkpt lat="44.50835" lon="6.84211">
        <ele>2381.3229980469</ele>
        <time>2011-01-14T12:26:34Z</time>
      </trkpt>
      <trkpt lat="44.50821" lon="6.84222">
        <ele>2384.6877441406</ele>
        <time>2011-01-14T12:27:03Z</time>
      </trkpt>
      <trkpt lat="44.50811" lon="6.84235">
        <ele>2387.5715332031</ele>
        <time>2011-01-14T12:27:31Z</time>
      </trkpt>
      <trkpt lat="44.50806" lon="6.84244">
        <ele>2390.9360351562</ele>
        <time>2011-01-14T12:27:50Z</time>
      </trkpt>
      <trkpt lat="44.508" lon="6.84262">
        <ele>2393.8200683594</ele>
        <time>2011-01-14T12:28:15Z</time>
      </trkpt>
      <trkpt lat="44.50791" lon="6.84275">
        <ele>2396.2236328125</ele>
        <time>2011-01-14T12:29:02Z</time>
      </trkpt>
      <trkpt lat="44.50788" lon="6.84283">
        <ele>2397.6655273438</ele>
        <time>2011-01-14T12:29:35Z</time>
      </trkpt>
      <trkpt lat="44.50788" lon="6.84284">
        <ele>2397.1848144531</ele>
        <time>2011-01-14T12:30:10Z</time>
      </trkpt>
      <trkpt lat="44.50789" lon="6.84285">
        <ele>2397.6655273438</ele>
        <time>2011-01-14T12:30:42Z</time>
      </trkpt>
      <trkpt lat="44.50782" lon="6.84295">
        <ele>2399.107421875</ele>
        <time>2011-01-14T12:31:04Z</time>
      </trkpt>
      <trkpt lat="44.50772" lon="6.84322">
        <ele>2401.9912109375</ele>
        <time>2011-01-14T12:31:38Z</time>
      </trkpt>
      <trkpt lat="44.50769" lon="6.84335">
        <ele>2403.4333496094</ele>
        <time>2011-01-14T12:32:08Z</time>
      </trkpt>
      <trkpt lat="44.50767" lon="6.84335">
        <ele>2403.4333496094</ele>
        <time>2011-01-14T12:32:41Z</time>
      </trkpt>
      <trkpt lat="44.50766" lon="6.84334">
        <ele>2403.4333496094</ele>
        <time>2011-01-14T12:33:20Z</time>
      </trkpt>
      <trkpt lat="44.50764" lon="6.84339">
        <ele>2403.9140625</ele>
        <time>2011-01-14T12:34:48Z</time>
      </trkpt>
      <trkpt lat="44.50754" lon="6.84361">
        <ele>2407.2785644531</ele>
        <time>2011-01-14T12:35:21Z</time>
      </trkpt>
      <trkpt lat="44.50745" lon="6.84383">
        <ele>2410.1623535156</ele>
        <time>2011-01-14T12:35:53Z</time>
      </trkpt>
      <trkpt lat="44.50738" lon="6.84407">
        <ele>2413.5270996094</ele>
        <time>2011-01-14T12:36:27Z</time>
      </trkpt>
      <trkpt lat="44.5073" lon="6.84423">
        <ele>2415.9304199219</ele>
        <time>2011-01-14T12:36:52Z</time>
      </trkpt>
      <trkpt lat="44.5072" lon="6.84447">
        <ele>2418.814453125</ele>
        <time>2011-01-14T12:37:26Z</time>
      </trkpt>
      <trkpt lat="44.50711" lon="6.84464">
        <ele>2421.2175292969</ele>
        <time>2011-01-14T12:37:56Z</time>
      </trkpt>
      <trkpt lat="44.50699" lon="6.84486">
        <ele>2424.5822753906</ele>
        <time>2011-01-14T12:38:27Z</time>
      </trkpt>
      <trkpt lat="44.50685" lon="6.84502">
        <ele>2426.9855957031</ele>
        <time>2011-01-14T12:39:01Z</time>
      </trkpt>
      <trkpt lat="44.50669" lon="6.84529">
        <ele>2430.3503417969</ele>
        <time>2011-01-14T12:39:41Z</time>
      </trkpt>
      <trkpt lat="44.50658" lon="6.84544">
        <ele>2432.7534179688</ele>
        <time>2011-01-14T12:40:11Z</time>
      </trkpt>
      <trkpt lat="44.5064" lon="6.84572">
        <ele>2434.6762695312</ele>
        <time>2011-01-14T12:40:49Z</time>
      </trkpt>
      <trkpt lat="44.50631" lon="6.84591">
        <ele>2437.0793457031</ele>
        <time>2011-01-14T12:41:17Z</time>
      </trkpt>
      <trkpt lat="44.5061" lon="6.84609">
        <ele>2439.9633789062</ele>
        <time>2011-01-14T12:41:56Z</time>
      </trkpt>
      <trkpt lat="44.50598" lon="6.84614">
        <ele>2442.8471679688</ele>
        <time>2011-01-14T12:42:24Z</time>
      </trkpt>
      <trkpt lat="44.50582" lon="6.84622">
        <ele>2446.2121582031</ele>
        <time>2011-01-14T12:42:57Z</time>
      </trkpt>
      <trkpt lat="44.50571" lon="6.84633">
        <ele>2449.5766601562</ele>
        <time>2011-01-14T12:43:27Z</time>
      </trkpt>
      <trkpt lat="44.5056" lon="6.84626">
        <ele>2452.9411621094</ele>
        <time>2011-01-14T12:43:54Z</time>
      </trkpt>
      <trkpt lat="44.50554" lon="6.84638">
        <ele>2454.3830566406</ele>
        <time>2011-01-14T12:44:18Z</time>
      </trkpt>
      <trkpt lat="44.50549" lon="6.8465">
        <ele>2458.2282714844</ele>
        <time>2011-01-14T12:44:39Z</time>
      </trkpt>
      <trkpt lat="44.50534" lon="6.84656">
        <ele>2461.1125488281</ele>
        <time>2011-01-14T12:45:08Z</time>
      </trkpt>
      <trkpt lat="44.50515" lon="6.84662">
        <ele>2462.5544433594</ele>
        <time>2011-01-14T12:45:41Z</time>
      </trkpt>
      <trkpt lat="44.50494" lon="6.84675">
        <ele>2464.9577636719</ele>
        <time>2011-01-14T12:46:16Z</time>
      </trkpt>
      <trkpt lat="44.50478" lon="6.84689">
        <ele>2467.8415527344</ele>
        <time>2011-01-14T12:46:51Z</time>
      </trkpt>
      <trkpt lat="44.50466" lon="6.847">
        <ele>2470.7255859375</ele>
        <time>2011-01-14T12:47:21Z</time>
      </trkpt>
      <trkpt lat="44.50454" lon="6.84714">
        <ele>2474.5708007812</ele>
        <time>2011-01-14T12:47:57Z</time>
      </trkpt>
      <trkpt lat="44.50448" lon="6.8473">
        <ele>2477.4548339844</ele>
        <time>2011-01-14T12:48:24Z</time>
      </trkpt>
      <trkpt lat="44.5044" lon="6.84744">
        <ele>2480.8195800781</ele>
        <time>2011-01-14T12:48:50Z</time>
      </trkpt>
      <trkpt lat="44.50431" lon="6.84759">
        <ele>2482.7419433594</ele>
        <time>2011-01-14T12:49:17Z</time>
      </trkpt>
      <trkpt lat="44.50415" lon="6.84772">
        <ele>2483.22265625</ele>
        <time>2011-01-14T12:49:44Z</time>
      </trkpt>
      <trkpt lat="44.50414" lon="6.84773">
        <ele>2482.7419433594</ele>
        <time>2011-01-14T12:49:45Z</time>
      </trkpt>
      <trkpt lat="44.50407" lon="6.84785">
        <ele>2484.6647949219</ele>
        <time>2011-01-14T12:50:05Z</time>
      </trkpt>
      <trkpt lat="44.50401" lon="6.84797">
        <ele>2486.1066894531</ele>
        <time>2011-01-14T12:50:26Z</time>
      </trkpt>
      <trkpt lat="44.504" lon="6.84805">
        <ele>2487.5485839844</ele>
        <time>2011-01-14T12:50:41Z</time>
      </trkpt>
      <trkpt lat="44.50394" lon="6.84809">
        <ele>2490.4323730469</ele>
        <time>2011-01-14T12:51:06Z</time>
      </trkpt>
      <trkpt lat="44.50382" lon="6.84796">
        <ele>2492.8359375</ele>
        <time>2011-01-14T12:51:34Z</time>
      </trkpt>
      <trkpt lat="44.50383" lon="6.84814">
        <ele>2494.7585449219</ele>
        <time>2011-01-14T12:51:57Z</time>
      </trkpt>
      <trkpt lat="44.50384" lon="6.8483">
        <ele>2497.1618652344</ele>
        <time>2011-01-14T12:52:20Z</time>
      </trkpt>
      <trkpt lat="44.5038" lon="6.84841">
        <ele>2500.5263671875</ele>
        <time>2011-01-14T12:52:44Z</time>
      </trkpt>
      <trkpt lat="44.50375" lon="6.84854">
        <ele>2503.4104003906</ele>
        <time>2011-01-14T12:53:11Z</time>
      </trkpt>
      <trkpt lat="44.5037" lon="6.84873">
        <ele>2506.2941894531</ele>
        <time>2011-01-14T12:53:42Z</time>
      </trkpt>
      <trkpt lat="44.50368" lon="6.84875">
        <ele>2506.7749023438</ele>
        <time>2011-01-14T12:54:11Z</time>
      </trkpt>
      <trkpt lat="44.50368" lon="6.84879">
        <ele>2507.736328125</ele>
        <time>2011-01-14T12:55:19Z</time>
      </trkpt>
      <trkpt lat="44.50364" lon="6.84895">
        <ele>2510.1396484375</ele>
        <time>2011-01-14T12:55:42Z</time>
      </trkpt>
      <trkpt lat="44.50358" lon="6.84914">
        <ele>2513.0236816406</ele>
        <time>2011-01-14T12:56:05Z</time>
      </trkpt>
      <trkpt lat="44.50351" lon="6.8493">
        <ele>2516.3881835938</ele>
        <time>2011-01-14T12:56:32Z</time>
      </trkpt>
      <trkpt lat="44.50344" lon="6.84939">
        <ele>2519.7526855469</ele>
        <time>2011-01-14T12:56:55Z</time>
      </trkpt>
      <trkpt lat="44.50338" lon="6.84947">
        <ele>2522.1560058594</ele>
        <time>2011-01-14T12:57:18Z</time>
      </trkpt>
      <trkpt lat="44.5033" lon="6.84951">
        <ele>2525.5207519531</ele>
        <time>2011-01-14T12:57:37Z</time>
      </trkpt>
      <trkpt lat="44.50323" lon="6.84959">
        <ele>2527.443359375</ele>
        <time>2011-01-14T12:57:56Z</time>
      </trkpt>
      <trkpt lat="44.50319" lon="6.84967">
        <ele>2530.3273925781</ele>
        <time>2011-01-14T12:58:17Z</time>
      </trkpt>
      <trkpt lat="44.50311" lon="6.84978">
        <ele>2533.2111816406</ele>
        <time>2011-01-14T12:58:40Z</time>
      </trkpt>
      <trkpt lat="44.50306" lon="6.84991">
        <ele>2536.5756835938</ele>
        <time>2011-01-14T12:59:02Z</time>
      </trkpt>
      <trkpt lat="44.50306" lon="6.84995">
        <ele>2536.5756835938</ele>
        <time>2011-01-14T12:59:43Z</time>
      </trkpt>
      <trkpt lat="44.50305" lon="6.84995">
        <ele>2535.1337890625</ele>
        <time>2011-01-14T13:00:16Z</time>
      </trkpt>
      <trkpt lat="44.50306" lon="6.84993">
        <ele>2537.0563964844</ele>
        <time>2011-01-14T13:02:59Z</time>
      </trkpt>
      <trkpt lat="44.50306" lon="6.84994">
        <ele>2537.537109375</ele>
        <time>2011-01-14T13:04:34Z</time>
      </trkpt>
      <trkpt lat="44.50306" lon="6.84994">
        <ele>2538.0178222656</ele>
        <time>2011-01-14T13:05:15Z</time>
      </trkpt>
      <trkpt lat="44.50307" lon="6.84994">
        <ele>2538.4985351562</ele>
        <time>2011-01-14T13:06:46Z</time>
      </trkpt>
      <trkpt lat="44.50298" lon="6.85006">
        <ele>2538.0178222656</ele>
        <time>2011-01-14T13:08:17Z</time>
      </trkpt>
      <trkpt lat="44.50282" lon="6.85016">
        <ele>2537.0563964844</ele>
        <time>2011-01-14T13:08:32Z</time>
      </trkpt>
      <trkpt lat="44.50261" lon="6.85022">
        <ele>2537.0563964844</ele>
        <time>2011-01-14T13:08:52Z</time>
      </trkpt>
      <trkpt lat="44.50236" lon="6.85028">
        <ele>2535.1337890625</ele>
        <time>2011-01-14T13:09:12Z</time>
      </trkpt>
      <trkpt lat="44.50212" lon="6.8502">
        <ele>2532.73046875</ele>
        <time>2011-01-14T13:09:29Z</time>
      </trkpt>
      <trkpt lat="44.50199" lon="6.85014">
        <ele>2530.8081054688</ele>
        <time>2011-01-14T13:09:48Z</time>
      </trkpt>
      <trkpt lat="44.50188" lon="6.85003">
        <ele>2530.3273925781</ele>
        <time>2011-01-14T13:10:51Z</time>
      </trkpt>
      <trkpt lat="44.50169" lon="6.84982">
        <ele>2527.9240722656</ele>
        <time>2011-01-14T13:11:11Z</time>
      </trkpt>
      <trkpt lat="44.50166" lon="6.8498">
        <ele>2527.443359375</ele>
        <time>2011-01-14T13:11:34Z</time>
      </trkpt>
      <trkpt lat="44.50166" lon="6.84978">
        <ele>2527.443359375</ele>
        <time>2011-01-14T13:11:41Z</time>
      </trkpt>
      <trkpt lat="44.50154" lon="6.84961">
        <ele>2526.4821777344</ele>
        <time>2011-01-14T13:11:59Z</time>
      </trkpt>
      <trkpt lat="44.50141" lon="6.84929">
        <ele>2524.5595703125</ele>
        <time>2011-01-14T13:12:20Z</time>
      </trkpt>
      <trkpt lat="44.50129" lon="6.84908">
        <ele>2524.5595703125</ele>
        <time>2011-01-14T13:12:38Z</time>
      </trkpt>
      <trkpt lat="44.50117" lon="6.84885">
        <ele>2524.0788574219</ele>
        <time>2011-01-14T13:13:01Z</time>
      </trkpt>
      <trkpt lat="44.50104" lon="6.84855">
        <ele>2521.6752929688</ele>
        <time>2011-01-14T13:13:14Z</time>
      </trkpt>
      <trkpt lat="44.50091" lon="6.84826">
        <ele>2522.63671875</ele>
        <time>2011-01-14T13:13:43Z</time>
      </trkpt>
      <trkpt lat="44.50086" lon="6.84818">
        <ele>2524.0788574219</ele>
        <time>2011-01-14T13:14:15Z</time>
      </trkpt>
      <trkpt lat="44.50079" lon="6.84801">
        <ele>2523.5979003906</ele>
        <time>2011-01-14T13:14:34Z</time>
      </trkpt>
      <trkpt lat="44.5007" lon="6.84772">
        <ele>2521.6752929688</ele>
        <time>2011-01-14T13:14:48Z</time>
      </trkpt>
      <trkpt lat="44.50064" lon="6.84746">
        <ele>2521.1945800781</ele>
        <time>2011-01-14T13:15:04Z</time>
      </trkpt>
      <trkpt lat="44.50058" lon="6.84732">
        <ele>2520.7141113281</ele>
        <time>2011-01-14T13:15:19Z</time>
      </trkpt>
      <trkpt lat="44.50047" lon="6.84708">
        <ele>2521.6752929688</ele>
        <time>2011-01-14T13:15:43Z</time>
      </trkpt>
      <trkpt lat="44.50038" lon="6.8469">
        <ele>2522.63671875</ele>
        <time>2011-01-14T13:16:04Z</time>
      </trkpt>
      <trkpt lat="44.5003" lon="6.84678">
        <ele>2523.5979003906</ele>
        <time>2011-01-14T13:16:21Z</time>
      </trkpt>
      <trkpt lat="44.50011" lon="6.84657">
        <ele>2523.1174316406</ele>
        <time>2011-01-14T13:16:51Z</time>
      </trkpt>
      <trkpt lat="44.50011" lon="6.84656">
        <ele>2523.1174316406</ele>
        <time>2011-01-14T13:17:11Z</time>
      </trkpt>
      <trkpt lat="44.50011" lon="6.84656">
        <ele>2522.63671875</ele>
        <time>2011-01-14T13:18:34Z</time>
      </trkpt>
      <trkpt lat="44.50012" lon="6.84655">
        <ele>2523.1174316406</ele>
        <time>2011-01-14T13:18:57Z</time>
      </trkpt>
      <trkpt lat="44.50013" lon="6.84656">
        <ele>2523.1174316406</ele>
        <time>2011-01-14T13:20:31Z</time>
      </trkpt>
      <trkpt lat="44.50012" lon="6.84657">
        <ele>2524.5595703125</ele>
        <time>2011-01-14T13:30:37Z</time>
      </trkpt>
      <trkpt lat="44.50013" lon="6.84653">
        <ele>2525.0400390625</ele>
        <time>2011-01-14T13:30:59Z</time>
      </trkpt>
      <trkpt lat="44.50013" lon="6.84649">
        <ele>2525.0400390625</ele>
        <time>2011-01-14T13:31:16Z</time>
      </trkpt>
      <trkpt lat="44.50013" lon="6.84649">
        <ele>2524.5595703125</ele>
        <time>2011-01-14T13:31:48Z</time>
      </trkpt>
      <trkpt lat="44.50011" lon="6.84648">
        <ele>2524.5595703125</ele>
        <time>2011-01-14T13:32:10Z</time>
      </trkpt>
      <trkpt lat="44.50012" lon="6.84648">
        <ele>2524.5595703125</ele>
        <time>2011-01-14T13:32:48Z</time>
      </trkpt>
      <trkpt lat="44.50013" lon="6.84645">
        <ele>2524.5595703125</ele>
        <time>2011-01-14T13:33:35Z</time>
      </trkpt>
      <trkpt lat="44.50013" lon="6.84641">
        <ele>2524.5595703125</ele>
        <time>2011-01-14T13:33:38Z</time>
      </trkpt>
      <trkpt lat="44.50013" lon="6.84631">
        <ele>2524.0788574219</ele>
        <time>2011-01-14T13:33:42Z</time>
      </trkpt>
      <trkpt lat="44.5002" lon="6.84612">
        <ele>2521.6752929688</ele>
        <time>2011-01-14T13:33:46Z</time>
      </trkpt>
      <trkpt lat="44.50031" lon="6.84602">
        <ele>2519.7526855469</ele>
        <time>2011-01-14T13:33:50Z</time>
      </trkpt>
      <trkpt lat="44.50033" lon="6.846">
        <ele>2519.7526855469</ele>
        <time>2011-01-14T13:33:51Z</time>
      </trkpt>
      <trkpt lat="44.50044" lon="6.84568">
        <ele>2517.830078125</ele>
        <time>2011-01-14T13:34:05Z</time>
      </trkpt>
      <trkpt lat="44.50047" lon="6.84554">
        <ele>2516.8688964844</ele>
        <time>2011-01-14T13:34:09Z</time>
      </trkpt>
      <trkpt lat="44.50053" lon="6.84551">
        <ele>2516.3881835938</ele>
        <time>2011-01-14T13:34:11Z</time>
      </trkpt>
      <trkpt lat="44.50058" lon="6.84534">
        <ele>2514.9462890625</ele>
        <time>2011-01-14T13:34:15Z</time>
      </trkpt>
      <trkpt lat="44.5006" lon="6.84525">
        <ele>2513.9848632812</ele>
        <time>2011-01-14T13:34:22Z</time>
      </trkpt>
      <trkpt lat="44.50076" lon="6.84496">
        <ele>2510.6203613281</ele>
        <time>2011-01-14T13:34:34Z</time>
      </trkpt>
      <trkpt lat="44.5008" lon="6.84482">
        <ele>2508.6977539062</ele>
        <time>2011-01-14T13:34:47Z</time>
      </trkpt>
      <trkpt lat="44.50084" lon="6.84476">
        <ele>2508.2170410156</ele>
        <time>2011-01-14T13:34:50Z</time>
      </trkpt>
      <trkpt lat="44.50095" lon="6.84474">
        <ele>2504.8522949219</ele>
        <time>2011-01-14T13:34:54Z</time>
      </trkpt>
      <trkpt lat="44.50114" lon="6.8447">
        <ele>2502.9296875</ele>
        <time>2011-01-14T13:34:59Z</time>
      </trkpt>
      <trkpt lat="44.50137" lon="6.84451">
        <ele>2501.0070800781</ele>
        <time>2011-01-14T13:35:10Z</time>
      </trkpt>
      <trkpt lat="44.50161" lon="6.84413">
        <ele>2498.123046875</ele>
        <time>2011-01-14T13:35:26Z</time>
      </trkpt>
      <trkpt lat="44.50166" lon="6.84398">
        <ele>2498.123046875</ele>
        <time>2011-01-14T13:35:39Z</time>
      </trkpt>
      <trkpt lat="44.50168" lon="6.84397">
        <ele>2497.1618652344</ele>
        <time>2011-01-14T13:36:12Z</time>
      </trkpt>
      <trkpt lat="44.5019" lon="6.84398">
        <ele>2495.7199707031</ele>
        <time>2011-01-14T13:36:17Z</time>
      </trkpt>
      <trkpt lat="44.50201" lon="6.84399">
        <ele>2493.3166503906</ele>
        <time>2011-01-14T13:36:19Z</time>
      </trkpt>
      <trkpt lat="44.50206" lon="6.84399">
        <ele>2493.7973632812</ele>
        <time>2011-01-14T13:36:26Z</time>
      </trkpt>
      <trkpt lat="44.50206" lon="6.84398">
        <ele>2493.3166503906</ele>
        <time>2011-01-14T13:36:42Z</time>
      </trkpt>
      <trkpt lat="44.50199" lon="6.84391">
        <ele>2490.4323730469</ele>
        <time>2011-01-14T13:36:46Z</time>
      </trkpt>
      <trkpt lat="44.50203" lon="6.84382">
        <ele>2486.5871582031</ele>
        <time>2011-01-14T13:36:49Z</time>
      </trkpt>
      <trkpt lat="44.50204" lon="6.84378">
        <ele>2486.5871582031</ele>
        <time>2011-01-14T13:36:50Z</time>
      </trkpt>
      <trkpt lat="44.50203" lon="6.84373">
        <ele>2484.1840820312</ele>
        <time>2011-01-14T13:36:51Z</time>
      </trkpt>
      <trkpt lat="44.50193" lon="6.84359">
        <ele>2481.7807617188</ele>
        <time>2011-01-14T13:37:00Z</time>
      </trkpt>
      <trkpt lat="44.50193" lon="6.84359">
        <ele>2481.3000488281</ele>
        <time>2011-01-14T13:37:06Z</time>
      </trkpt>
      <trkpt lat="44.50198" lon="6.84351">
        <ele>2477.935546875</ele>
        <time>2011-01-14T13:37:10Z</time>
      </trkpt>
      <trkpt lat="44.50199" lon="6.84348">
        <ele>2477.935546875</ele>
        <time>2011-01-14T13:37:11Z</time>
      </trkpt>
      <trkpt lat="44.50204" lon="6.84342">
        <ele>2475.5319824219</ele>
        <time>2011-01-14T13:37:13Z</time>
      </trkpt>
      <trkpt lat="44.50205" lon="6.84338">
        <ele>2471.6867675781</ele>
        <time>2011-01-14T13:37:14Z</time>
      </trkpt>
      <trkpt lat="44.50205" lon="6.84333">
        <ele>2471.6867675781</ele>
        <time>2011-01-14T13:37:15Z</time>
      </trkpt>
      <trkpt lat="44.50203" lon="6.84329">
        <ele>2469.7641601562</ele>
        <time>2011-01-14T13:37:17Z</time>
      </trkpt>
      <trkpt lat="44.50203" lon="6.84328">
        <ele>2469.7641601562</ele>
        <time>2011-01-14T13:37:31Z</time>
      </trkpt>
      <trkpt lat="44.5021" lon="6.84324">
        <ele>2465.9189453125</ele>
        <time>2011-01-14T13:37:35Z</time>
      </trkpt>
      <trkpt lat="44.50214" lon="6.84327">
        <ele>2465.9189453125</ele>
        <time>2011-01-14T13:37:36Z</time>
      </trkpt>
      <trkpt lat="44.50226" lon="6.84323">
        <ele>2462.5544433594</ele>
        <time>2011-01-14T13:37:41Z</time>
      </trkpt>
      <trkpt lat="44.50229" lon="6.84317">
        <ele>2460.1511230469</ele>
        <time>2011-01-14T13:37:43Z</time>
      </trkpt>
      <trkpt lat="44.50232" lon="6.84317">
        <ele>2457.7478027344</ele>
        <time>2011-01-14T13:37:45Z</time>
      </trkpt>
      <trkpt lat="44.50231" lon="6.84317">
        <ele>2458.2282714844</ele>
        <time>2011-01-14T13:38:00Z</time>
      </trkpt>
      <trkpt lat="44.50233" lon="6.84306">
        <ele>2454.8637695312</ele>
        <time>2011-01-14T13:38:04Z</time>
      </trkpt>
      <trkpt lat="44.50235" lon="6.84302">
        <ele>2454.8637695312</ele>
        <time>2011-01-14T13:38:05Z</time>
      </trkpt>
      <trkpt lat="44.50237" lon="6.84298">
        <ele>2451.4992675781</ele>
        <time>2011-01-14T13:38:06Z</time>
      </trkpt>
      <trkpt lat="44.50242" lon="6.84289">
        <ele>2448.1345214844</ele>
        <time>2011-01-14T13:38:09Z</time>
      </trkpt>
      <trkpt lat="44.50244" lon="6.8429">
        <ele>2444.2893066406</ele>
        <time>2011-01-14T13:38:10Z</time>
      </trkpt>
      <trkpt lat="44.50245" lon="6.8429">
        <ele>2445.2507324219</ele>
        <time>2011-01-14T13:38:11Z</time>
      </trkpt>
      <trkpt lat="44.50245" lon="6.84291">
        <ele>2444.7700195312</ele>
        <time>2011-01-14T13:38:19Z</time>
      </trkpt>
      <trkpt lat="44.50254" lon="6.84292">
        <ele>2443.80859375</ele>
        <time>2011-01-14T13:38:30Z</time>
      </trkpt>
      <trkpt lat="44.50273" lon="6.84297">
        <ele>2441.8859863281</ele>
        <time>2011-01-14T13:38:45Z</time>
      </trkpt>
      <trkpt lat="44.5029" lon="6.84302">
        <ele>2439.4826660156</ele>
        <time>2011-01-14T13:38:48Z</time>
      </trkpt>
      <trkpt lat="44.50313" lon="6.84308">
        <ele>2436.1181640625</ele>
        <time>2011-01-14T13:38:53Z</time>
      </trkpt>
      <trkpt lat="44.50356" lon="6.84328">
        <ele>2432.7534179688</ele>
        <time>2011-01-14T13:39:05Z</time>
      </trkpt>
      <trkpt lat="44.50372" lon="6.8434">
        <ele>2431.3115234375</ele>
        <time>2011-01-14T13:39:09Z</time>
      </trkpt>
      <trkpt lat="44.50379" lon="6.84346">
        <ele>2429.8696289062</ele>
        <time>2011-01-14T13:39:15Z</time>
      </trkpt>
      <trkpt lat="44.50405" lon="6.84375">
        <ele>2426.0241699219</ele>
        <time>2011-01-14T13:39:26Z</time>
      </trkpt>
      <trkpt lat="44.5041" lon="6.84381">
        <ele>2426.0241699219</ele>
        <time>2011-01-14T13:39:27Z</time>
      </trkpt>
      <trkpt lat="44.50421" lon="6.84391">
        <ele>2424.5822753906</ele>
        <time>2011-01-14T13:39:29Z</time>
      </trkpt>
      <trkpt lat="44.50434" lon="6.844">
        <ele>2422.1789550781</ele>
        <time>2011-01-14T13:39:32Z</time>
      </trkpt>
      <trkpt lat="44.50451" lon="6.84407">
        <ele>2421.2175292969</ele>
        <time>2011-01-14T13:39:36Z</time>
      </trkpt>
      <trkpt lat="44.50473" lon="6.84409">
        <ele>2417.8530273438</ele>
        <time>2011-01-14T13:39:39Z</time>
      </trkpt>
      <trkpt lat="44.50481" lon="6.84408">
        <ele>2417.3723144531</ele>
        <time>2011-01-14T13:39:44Z</time>
      </trkpt>
      <trkpt lat="44.50481" lon="6.84407">
        <ele>2417.3723144531</ele>
        <time>2011-01-14T13:39:55Z</time>
      </trkpt>
      <trkpt lat="44.50481" lon="6.84388">
        <ele>2414.4885253906</ele>
        <time>2011-01-14T13:40:00Z</time>
      </trkpt>
      <trkpt lat="44.5048" lon="6.84382">
        <ele>2412.0852050781</ele>
        <time>2011-01-14T13:40:02Z</time>
      </trkpt>
      <trkpt lat="44.5048" lon="6.84381">
        <ele>2410.1623535156</ele>
        <time>2011-01-14T13:40:04Z</time>
      </trkpt>
      <trkpt lat="44.5048" lon="6.84381">
        <ele>2410.6430664062</ele>
        <time>2011-01-14T13:40:07Z</time>
      </trkpt>
      <trkpt lat="44.50479" lon="6.84367">
        <ele>2408.7204589844</ele>
        <time>2011-01-14T13:40:11Z</time>
      </trkpt>
      <trkpt lat="44.50479" lon="6.8435">
        <ele>2406.7978515625</ele>
        <time>2011-01-14T13:40:13Z</time>
      </trkpt>
      <trkpt lat="44.50485" lon="6.84327">
        <ele>2402.9526367188</ele>
        <time>2011-01-14T13:40:16Z</time>
      </trkpt>
      <trkpt lat="44.50492" lon="6.8431">
        <ele>2401.5107421875</ele>
        <time>2011-01-14T13:40:19Z</time>
      </trkpt>
      <trkpt lat="44.50503" lon="6.84294">
        <ele>2400.5493164062</ele>
        <time>2011-01-14T13:40:23Z</time>
      </trkpt>
      <trkpt lat="44.50521" lon="6.84279">
        <ele>2398.1459960938</ele>
        <time>2011-01-14T13:40:28Z</time>
      </trkpt>
      <trkpt lat="44.50549" lon="6.84261">
        <ele>2394.3005371094</ele>
        <time>2011-01-14T13:40:39Z</time>
      </trkpt>
      <trkpt lat="44.50551" lon="6.84259">
        <ele>2394.3005371094</ele>
        <time>2011-01-14T13:40:40Z</time>
      </trkpt>
      <trkpt lat="44.50559" lon="6.84259">
        <ele>2393.3393554688</ele>
        <time>2011-01-14T13:40:49Z</time>
      </trkpt>
      <trkpt lat="44.50559" lon="6.84259">
        <ele>2393.3393554688</ele>
        <time>2011-01-14T13:41:00Z</time>
      </trkpt>
      <trkpt lat="44.50589" lon="6.84245">
        <ele>2390.4553222656</ele>
        <time>2011-01-14T13:41:07Z</time>
      </trkpt>
      <trkpt lat="44.50599" lon="6.84244">
        <ele>2388.5329589844</ele>
        <time>2011-01-14T13:41:09Z</time>
      </trkpt>
      <trkpt lat="44.50602" lon="6.84243">
        <ele>2387.5715332031</ele>
        <time>2011-01-14T13:41:11Z</time>
      </trkpt>
      <trkpt lat="44.50598" lon="6.84235">
        <ele>2387.0908203125</ele>
        <time>2011-01-14T13:41:14Z</time>
      </trkpt>
      <trkpt lat="44.50596" lon="6.84225">
        <ele>2385.6489257812</ele>
        <time>2011-01-14T13:41:16Z</time>
      </trkpt>
      <trkpt lat="44.50595" lon="6.84214">
        <ele>2384.6877441406</ele>
        <time>2011-01-14T13:41:18Z</time>
      </trkpt>
      <trkpt lat="44.50594" lon="6.84192">
        <ele>2380.8425292969</ele>
        <time>2011-01-14T13:41:22Z</time>
      </trkpt>
      <trkpt lat="44.50595" lon="6.84187">
        <ele>2380.8425292969</ele>
        <time>2011-01-14T13:41:23Z</time>
      </trkpt>
      <trkpt lat="44.50595" lon="6.84175">
        <ele>2379.880859375</ele>
        <time>2011-01-14T13:41:25Z</time>
      </trkpt>
      <trkpt lat="44.50594" lon="6.84161">
        <ele>2378.4389648438</ele>
        <time>2011-01-14T13:41:27Z</time>
      </trkpt>
      <trkpt lat="44.50603" lon="6.8414">
        <ele>2376.9970703125</ele>
        <time>2011-01-14T13:41:30Z</time>
      </trkpt>
      <trkpt lat="44.50607" lon="6.84135">
        <ele>2375.5549316406</ele>
        <time>2011-01-14T13:41:31Z</time>
      </trkpt>
      <trkpt lat="44.50634" lon="6.84107">
        <ele>2373.1518554688</ele>
        <time>2011-01-14T13:41:43Z</time>
      </trkpt>
      <trkpt lat="44.50649" lon="6.84097">
        <ele>2371.7097167969</ele>
        <time>2011-01-14T13:41:55Z</time>
      </trkpt>
      <trkpt lat="44.50659" lon="6.84096">
        <ele>2370.2678222656</ele>
        <time>2011-01-14T13:41:59Z</time>
      </trkpt>
      <trkpt lat="44.50667" lon="6.8408">
        <ele>2367.8645019531</ele>
        <time>2011-01-14T13:42:04Z</time>
      </trkpt>
      <trkpt lat="44.5068" lon="6.84062">
        <ele>2363.5383300781</ele>
        <time>2011-01-14T13:42:08Z</time>
      </trkpt>
      <trkpt lat="44.50695" lon="6.84038">
        <ele>2363.0578613281</ele>
        <time>2011-01-14T13:42:18Z</time>
      </trkpt>
      <trkpt lat="44.50704" lon="6.84012">
        <ele>2361.1352539062</ele>
        <time>2011-01-14T13:42:47Z</time>
      </trkpt>
      <trkpt lat="44.50723" lon="6.83986">
        <ele>2357.7707519531</ele>
        <time>2011-01-14T13:42:59Z</time>
      </trkpt>
      <trkpt lat="44.5075" lon="6.8395">
        <ele>2355.3674316406</ele>
        <time>2011-01-14T13:43:09Z</time>
      </trkpt>
      <trkpt lat="44.5076" lon="6.83945">
        <ele>2354.4060058594</ele>
        <time>2011-01-14T13:43:19Z</time>
      </trkpt>
      <trkpt lat="44.50779" lon="6.83942">
        <ele>2353.4448242188</ele>
        <time>2011-01-14T13:43:36Z</time>
      </trkpt>
      <trkpt lat="44.50805" lon="6.8396">
        <ele>2351.5222167969</ele>
        <time>2011-01-14T13:43:48Z</time>
      </trkpt>
      <trkpt lat="44.5083" lon="6.83994">
        <ele>2348.6381835938</ele>
        <time>2011-01-14T13:43:59Z</time>
      </trkpt>
      <trkpt lat="44.50846" lon="6.84022">
        <ele>2345.7541503906</ele>
        <time>2011-01-14T13:44:06Z</time>
      </trkpt>
      <trkpt lat="44.50847" lon="6.84027">
        <ele>2345.2734375</ele>
        <time>2011-01-14T13:44:20Z</time>
      </trkpt>
      <trkpt lat="44.50858" lon="6.84039">
        <ele>2343.8315429688</ele>
        <time>2011-01-14T13:44:30Z</time>
      </trkpt>
      <trkpt lat="44.50864" lon="6.84042">
        <ele>2343.8315429688</ele>
        <time>2011-01-14T13:44:41Z</time>
      </trkpt>
      <trkpt lat="44.50867" lon="6.84041">
        <ele>2343.8315429688</ele>
        <time>2011-01-14T13:44:45Z</time>
      </trkpt>
      <trkpt lat="44.5088" lon="6.84018">
        <ele>2340.466796875</ele>
        <time>2011-01-14T13:44:51Z</time>
      </trkpt>
      <trkpt lat="44.50884" lon="6.84017">
        <ele>2340.466796875</ele>
        <time>2011-01-14T13:44:52Z</time>
      </trkpt>
      <trkpt lat="44.5089" lon="6.84017">
        <ele>2339.0249023438</ele>
        <time>2011-01-14T13:45:01Z</time>
      </trkpt>
      <trkpt lat="44.5089" lon="6.84017">
        <ele>2338.5444335938</ele>
        <time>2011-01-14T13:45:32Z</time>
      </trkpt>
      <trkpt lat="44.50894" lon="6.84013">
        <ele>2338.0637207031</ele>
        <time>2011-01-14T13:45:35Z</time>
      </trkpt>
      <trkpt lat="44.50892" lon="6.8399">
        <ele>2335.1796875</ele>
        <time>2011-01-14T13:45:40Z</time>
      </trkpt>
      <trkpt lat="44.5089" lon="6.83988">
        <ele>2335.1796875</ele>
        <time>2011-01-14T13:45:41Z</time>
      </trkpt>
      <trkpt lat="44.50885" lon="6.83983">
        <ele>2334.2185058594</ele>
        <time>2011-01-14T13:45:47Z</time>
      </trkpt>
      <trkpt lat="44.50902" lon="6.83965">
        <ele>2330.8537597656</ele>
        <time>2011-01-14T13:45:54Z</time>
      </trkpt>
      <trkpt lat="44.50903" lon="6.8396">
        <ele>2330.8537597656</ele>
        <time>2011-01-14T13:45:55Z</time>
      </trkpt>
      <trkpt lat="44.50899" lon="6.83948">
        <ele>2328.9309082031</ele>
        <time>2011-01-14T13:45:57Z</time>
      </trkpt>
      <trkpt lat="44.50895" lon="6.83944">
        <ele>2327.4890136719</ele>
        <time>2011-01-14T13:46:02Z</time>
      </trkpt>
      <trkpt lat="44.50902" lon="6.83942">
        <ele>2326.5278320312</ele>
        <time>2011-01-14T13:46:06Z</time>
      </trkpt>
      <trkpt lat="44.50908" lon="6.83942">
        <ele>2326.0471191406</ele>
        <time>2011-01-14T13:46:08Z</time>
      </trkpt>
      <trkpt lat="44.50921" lon="6.83925">
        <ele>2323.6437988281</ele>
        <time>2011-01-14T13:46:13Z</time>
      </trkpt>
      <trkpt lat="44.50921" lon="6.83921">
        <ele>2323.1633300781</ele>
        <time>2011-01-14T13:46:14Z</time>
      </trkpt>
      <trkpt lat="44.50936" lon="6.83881">
        <ele>2319.7985839844</ele>
        <time>2011-01-14T13:46:25Z</time>
      </trkpt>
      <trkpt lat="44.50956" lon="6.83847">
        <ele>2316.9147949219</ele>
        <time>2011-01-14T13:46:34Z</time>
      </trkpt>
      <trkpt lat="44.50965" lon="6.83834">
        <ele>2314.5112304688</ele>
        <time>2011-01-14T13:46:37Z</time>
      </trkpt>
      <trkpt lat="44.50972" lon="6.83811">
        <ele>2311.1467285156</ele>
        <time>2011-01-14T13:46:41Z</time>
      </trkpt>
      <trkpt lat="44.50977" lon="6.83763">
        <ele>2309.2241210938</ele>
        <time>2011-01-14T13:46:52Z</time>
      </trkpt>
      <trkpt lat="44.50976" lon="6.83737">
        <ele>2307.3015136719</ele>
        <time>2011-01-14T13:46:57Z</time>
      </trkpt>
      <trkpt lat="44.50979" lon="6.8372">
        <ele>2305.37890625</ele>
        <time>2011-01-14T13:47:06Z</time>
      </trkpt>
      <trkpt lat="44.50981" lon="6.83718">
        <ele>2305.37890625</ele>
        <time>2011-01-14T13:47:56Z</time>
      </trkpt>
      <trkpt lat="44.50984" lon="6.83716">
        <ele>2305.37890625</ele>
        <time>2011-01-14T13:48:17Z</time>
      </trkpt>
      <trkpt lat="44.50984" lon="6.83716">
        <ele>2305.37890625</ele>
        <time>2011-01-14T13:48:40Z</time>
      </trkpt>
      <trkpt lat="44.50992" lon="6.83705">
        <ele>2304.8981933594</ele>
        <time>2011-01-14T13:48:47Z</time>
      </trkpt>
      <trkpt lat="44.50997" lon="6.83693">
        <ele>2305.859375</ele>
        <time>2011-01-14T13:49:06Z</time>
      </trkpt>
      <trkpt lat="44.50995" lon="6.83687">
        <ele>2305.37890625</ele>
        <time>2011-01-14T13:49:14Z</time>
      </trkpt>
      <trkpt lat="44.50993" lon="6.8366">
        <ele>2304.4174804688</ele>
        <time>2011-01-14T13:49:27Z</time>
      </trkpt>
      <trkpt lat="44.50991" lon="6.83623">
        <ele>2302.4948730469</ele>
        <time>2011-01-14T13:49:40Z</time>
      </trkpt>
      <trkpt lat="44.50998" lon="6.83574">
        <ele>2299.1301269531</ele>
        <time>2011-01-14T13:49:54Z</time>
      </trkpt>
      <trkpt lat="44.51012" lon="6.83533">
        <ele>2295.2849121094</ele>
        <time>2011-01-14T13:50:01Z</time>
      </trkpt>
      <trkpt lat="44.51014" lon="6.83529">
        <ele>2295.2849121094</ele>
        <time>2011-01-14T13:50:02Z</time>
      </trkpt>
      <trkpt lat="44.51021" lon="6.83518">
        <ele>2293.8430175781</ele>
        <time>2011-01-14T13:50:10Z</time>
      </trkpt>
      <trkpt lat="44.51021" lon="6.83518">
        <ele>2293.3623046875</ele>
        <time>2011-01-14T13:50:17Z</time>
      </trkpt>
      <trkpt lat="44.5102" lon="6.83504">
        <ele>2292.4011230469</ele>
        <time>2011-01-14T13:50:21Z</time>
      </trkpt>
      <trkpt lat="44.51026" lon="6.83485">
        <ele>2289.0363769531</ele>
        <time>2011-01-14T13:50:24Z</time>
      </trkpt>
      <trkpt lat="44.5103" lon="6.8348">
        <ele>2289.0363769531</ele>
        <time>2011-01-14T13:50:25Z</time>
      </trkpt>
      <trkpt lat="44.51035" lon="6.8347">
        <ele>2287.5944824219</ele>
        <time>2011-01-14T13:50:27Z</time>
      </trkpt>
      <trkpt lat="44.51041" lon="6.83458">
        <ele>2286.6330566406</ele>
        <time>2011-01-14T13:50:29Z</time>
      </trkpt>
      <trkpt lat="44.5105" lon="6.83441">
        <ele>2284.2299804688</ele>
        <time>2011-01-14T13:50:32Z</time>
      </trkpt>
      <trkpt lat="44.51057" lon="6.8343">
        <ele>2283.7490234375</ele>
        <time>2011-01-14T13:50:34Z</time>
      </trkpt>
      <trkpt lat="44.51077" lon="6.83416">
        <ele>2280.865234375</ele>
        <time>2011-01-14T13:50:39Z</time>
      </trkpt>
      <trkpt lat="44.51097" lon="6.83395">
        <ele>2277.0200195312</ele>
        <time>2011-01-14T13:50:45Z</time>
      </trkpt>
      <trkpt lat="44.511" lon="6.83391">
        <ele>2277.0200195312</ele>
        <time>2011-01-14T13:50:46Z</time>
      </trkpt>
      <trkpt lat="44.51116" lon="6.83354">
        <ele>2274.1359863281</ele>
        <time>2011-01-14T13:50:55Z</time>
      </trkpt>
      <trkpt lat="44.51126" lon="6.8333">
        <ele>2272.2133789062</ele>
        <time>2011-01-14T13:51:00Z</time>
      </trkpt>
      <trkpt lat="44.5114" lon="6.83301">
        <ele>2268.8488769531</ele>
        <time>2011-01-14T13:51:05Z</time>
      </trkpt>
      <trkpt lat="44.51149" lon="6.83278">
        <ele>2266.9260253906</ele>
        <time>2011-01-14T13:51:09Z</time>
      </trkpt>
      <trkpt lat="44.51156" lon="6.83258">
        <ele>2265.0034179688</ele>
        <time>2011-01-14T13:51:13Z</time>
      </trkpt>
      <trkpt lat="44.51166" lon="6.83221">
        <ele>2261.6389160156</ele>
        <time>2011-01-14T13:51:22Z</time>
      </trkpt>
      <trkpt lat="44.51167" lon="6.83216">
        <ele>2261.6389160156</ele>
        <time>2011-01-14T13:51:23Z</time>
      </trkpt>
      <trkpt lat="44.51168" lon="6.83192">
        <ele>2260.1967773438</ele>
        <time>2011-01-14T13:51:28Z</time>
      </trkpt>
      <trkpt lat="44.5117" lon="6.83175">
        <ele>2259.7160644531</ele>
        <time>2011-01-14T13:51:43Z</time>
      </trkpt>
      <trkpt lat="44.5117" lon="6.83173">
        <ele>2259.7160644531</ele>
        <time>2011-01-14T13:51:48Z</time>
      </trkpt>
      <trkpt lat="44.51166" lon="6.83147">
        <ele>2257.7937011719</ele>
        <time>2011-01-14T13:52:02Z</time>
      </trkpt>
      <trkpt lat="44.51167" lon="6.83137">
        <ele>2257.7937011719</ele>
        <time>2011-01-14T13:52:22Z</time>
      </trkpt>
      <trkpt lat="44.51176" lon="6.83134">
        <ele>2258.2741699219</ele>
        <time>2011-01-14T13:52:42Z</time>
      </trkpt>
      <trkpt lat="44.51178" lon="6.83134">
        <ele>2258.2741699219</ele>
        <time>2011-01-14T13:52:45Z</time>
      </trkpt>
      <trkpt lat="44.51193" lon="6.83136">
        <ele>2256.3515625</ele>
        <time>2011-01-14T13:52:50Z</time>
      </trkpt>
      <trkpt lat="44.51207" lon="6.83135">
        <ele>2253.4677734375</ele>
        <time>2011-01-14T13:52:53Z</time>
      </trkpt>
      <trkpt lat="44.51208" lon="6.83133">
        <ele>2253.4677734375</ele>
        <time>2011-01-14T13:52:54Z</time>
      </trkpt>
      <trkpt lat="44.51207" lon="6.83131">
        <ele>2252.9870605469</ele>
        <time>2011-01-14T13:52:56Z</time>
      </trkpt>
      <trkpt lat="44.51204" lon="6.83101">
        <ele>2250.1030273438</ele>
        <time>2011-01-14T13:53:06Z</time>
      </trkpt>
      <trkpt lat="44.51205" lon="6.83088">
        <ele>2250.5834960938</ele>
        <time>2011-01-14T13:53:21Z</time>
      </trkpt>
      <trkpt lat="44.51211" lon="6.83068">
        <ele>2249.1416015625</ele>
        <time>2011-01-14T13:53:34Z</time>
      </trkpt>
      <trkpt lat="44.51213" lon="6.83045">
        <ele>2249.1416015625</ele>
        <time>2011-01-14T13:53:56Z</time>
      </trkpt>
      <trkpt lat="44.51216" lon="6.83035">
        <ele>2248.6608886719</ele>
        <time>2011-01-14T13:54:15Z</time>
      </trkpt>
      <trkpt lat="44.51241" lon="6.83006">
        <ele>2246.2578125</ele>
        <time>2011-01-14T13:54:31Z</time>
      </trkpt>
      <trkpt lat="44.51255" lon="6.82981">
        <ele>2243.8544921875</ele>
        <time>2011-01-14T13:54:40Z</time>
      </trkpt>
      <trkpt lat="44.51266" lon="6.82961">
        <ele>2242.4125976562</ele>
        <time>2011-01-14T13:54:53Z</time>
      </trkpt>
      <trkpt lat="44.5127" lon="6.82958">
        <ele>2242.8930664062</ele>
        <time>2011-01-14T13:55:04Z</time>
      </trkpt>
      <trkpt lat="44.51271" lon="6.82958">
        <ele>2241.451171875</ele>
        <time>2011-01-14T13:55:47Z</time>
      </trkpt>
      <trkpt lat="44.5127" lon="6.82958">
        <ele>2242.4125976562</ele>
        <time>2011-01-14T13:56:00Z</time>
      </trkpt>
      <trkpt lat="44.51272" lon="6.82955">
        <ele>2242.8930664062</ele>
        <time>2011-01-14T13:56:16Z</time>
      </trkpt>
      <trkpt lat="44.51287" lon="6.82928">
        <ele>2240.0092773438</ele>
        <time>2011-01-14T13:56:32Z</time>
      </trkpt>
      <trkpt lat="44.51294" lon="6.82919">
        <ele>2239.5285644531</ele>
        <time>2011-01-14T13:56:43Z</time>
      </trkpt>
      <trkpt lat="44.51307" lon="6.829">
        <ele>2239.0478515625</ele>
        <time>2011-01-14T13:57:00Z</time>
      </trkpt>
      <trkpt lat="44.5133" lon="6.82872">
        <ele>2236.64453125</ele>
        <time>2011-01-14T13:57:16Z</time>
      </trkpt>
      <trkpt lat="44.51345" lon="6.82844">
        <ele>2232.7990722656</ele>
        <time>2011-01-14T13:57:24Z</time>
      </trkpt>
      <trkpt lat="44.51356" lon="6.82814">
        <ele>2228.9538574219</ele>
        <time>2011-01-14T13:57:31Z</time>
      </trkpt>
      <trkpt lat="44.51358" lon="6.82808">
        <ele>2228.9538574219</ele>
        <time>2011-01-14T13:57:32Z</time>
      </trkpt>
      <trkpt lat="44.51361" lon="6.82797">
        <ele>2227.5119628906</ele>
        <time>2011-01-14T13:57:34Z</time>
      </trkpt>
      <trkpt lat="44.5137" lon="6.82764">
        <ele>2223.6667480469</ele>
        <time>2011-01-14T13:57:45Z</time>
      </trkpt>
      <trkpt lat="44.51381" lon="6.82737">
        <ele>2221.2634277344</ele>
        <time>2011-01-14T13:57:51Z</time>
      </trkpt>
      <trkpt lat="44.51392" lon="6.8271">
        <ele>2217.8986816406</ele>
        <time>2011-01-14T13:57:56Z</time>
      </trkpt>
      <trkpt lat="44.51396" lon="6.82699">
        <ele>2216.4567871094</ele>
        <time>2011-01-14T13:57:58Z</time>
      </trkpt>
      <trkpt lat="44.51405" lon="6.8267">
        <ele>2213.0922851562</ele>
        <time>2011-01-14T13:58:03Z</time>
      </trkpt>
      <trkpt lat="44.51408" lon="6.82656">
        <ele>2212.130859375</ele>
        <time>2011-01-14T13:58:05Z</time>
      </trkpt>
      <trkpt lat="44.5141" lon="6.82645">
        <ele>2210.6889648438</ele>
        <time>2011-01-14T13:58:07Z</time>
      </trkpt>
      <trkpt lat="44.51412" lon="6.82614">
        <ele>2208.7663574219</ele>
        <time>2011-01-14T13:58:11Z</time>
      </trkpt>
      <trkpt lat="44.51413" lon="6.82597">
        <ele>2205.4018554688</ele>
        <time>2011-01-14T13:58:13Z</time>
      </trkpt>
      <trkpt lat="44.51414" lon="6.8259">
        <ele>2204.9211425781</ele>
        <time>2011-01-14T13:58:14Z</time>
      </trkpt>
      <trkpt lat="44.51415" lon="6.82576">
        <ele>2204.9211425781</ele>
        <time>2011-01-14T13:58:22Z</time>
      </trkpt>
      <trkpt lat="44.51419" lon="6.8256">
        <ele>2205.4018554688</ele>
        <time>2011-01-14T13:58:45Z</time>
      </trkpt>
      <trkpt lat="44.51423" lon="6.8255">
        <ele>2204.9211425781</ele>
        <time>2011-01-14T13:59:09Z</time>
      </trkpt>
      <trkpt lat="44.51424" lon="6.82548">
        <ele>2204.4404296875</ele>
        <time>2011-01-14T13:59:12Z</time>
      </trkpt>
      <trkpt lat="44.5143" lon="6.82538">
        <ele>2203.9597167969</ele>
        <time>2011-01-14T13:59:30Z</time>
      </trkpt>
      <trkpt lat="44.5144" lon="6.82527">
        <ele>2203.4790039062</ele>
        <time>2011-01-14T13:59:52Z</time>
      </trkpt>
      <trkpt lat="44.51441" lon="6.82524">
        <ele>2203.4790039062</ele>
        <time>2011-01-14T13:59:56Z</time>
      </trkpt>
      <trkpt lat="44.51457" lon="6.825">
        <ele>2200.1145019531</ele>
        <time>2011-01-14T14:00:09Z</time>
      </trkpt>
      <trkpt lat="44.51467" lon="6.82465">
        <ele>2197.7111816406</ele>
        <time>2011-01-14T14:00:17Z</time>
      </trkpt>
      <trkpt lat="44.5147" lon="6.82455">
        <ele>2196.7497558594</ele>
        <time>2011-01-14T14:00:26Z</time>
      </trkpt>
      <trkpt lat="44.51473" lon="6.82443">
        <ele>2197.23046875</ele>
        <time>2011-01-14T14:00:45Z</time>
      </trkpt>
      <trkpt lat="44.51475" lon="6.82437">
        <ele>2197.23046875</ele>
        <time>2011-01-14T14:01:04Z</time>
      </trkpt>
      <trkpt lat="44.51476" lon="6.82435">
        <ele>2197.23046875</ele>
        <time>2011-01-14T14:01:07Z</time>
      </trkpt>
      <trkpt lat="44.51491" lon="6.82413">
        <ele>2196.7497558594</ele>
        <time>2011-01-14T14:01:27Z</time>
      </trkpt>
      <trkpt lat="44.51499" lon="6.82403">
        <ele>2196.2692871094</ele>
        <time>2011-01-14T14:01:43Z</time>
      </trkpt>
      <trkpt lat="44.51507" lon="6.82393">
        <ele>2196.7497558594</ele>
        <time>2011-01-14T14:02:04Z</time>
      </trkpt>
      <trkpt lat="44.51516" lon="6.82386">
        <ele>2196.7497558594</ele>
        <time>2011-01-14T14:02:19Z</time>
      </trkpt>
      <trkpt lat="44.5152" lon="6.82383">
        <ele>2195.7885742188</ele>
        <time>2011-01-14T14:02:21Z</time>
      </trkpt>
      <trkpt lat="44.5154" lon="6.82353">
        <ele>2192.9045410156</ele>
        <time>2011-01-14T14:02:31Z</time>
      </trkpt>
      <trkpt lat="44.5155" lon="6.8234">
        <ele>2190.9819335938</ele>
        <time>2011-01-14T14:02:34Z</time>
      </trkpt>
      <trkpt lat="44.5156" lon="6.82329">
        <ele>2188.5788574219</ele>
        <time>2011-01-14T14:02:36Z</time>
      </trkpt>
      <trkpt lat="44.51569" lon="6.82318">
        <ele>2187.1364746094</ele>
        <time>2011-01-14T14:02:38Z</time>
      </trkpt>
      <trkpt lat="44.51582" lon="6.82304">
        <ele>2184.2526855469</ele>
        <time>2011-01-14T14:02:41Z</time>
      </trkpt>
      <trkpt lat="44.516" lon="6.82288">
        <ele>2182.330078125</ele>
        <time>2011-01-14T14:02:45Z</time>
      </trkpt>
      <trkpt lat="44.51614" lon="6.82273">
        <ele>2178.4848632812</ele>
        <time>2011-01-14T14:02:49Z</time>
      </trkpt>
      <trkpt lat="44.51623" lon="6.8226">
        <ele>2177.5234375</ele>
        <time>2011-01-14T14:02:52Z</time>
      </trkpt>
      <trkpt lat="44.51633" lon="6.82244">
        <ele>2175.1201171875</ele>
        <time>2011-01-14T14:02:55Z</time>
      </trkpt>
      <trkpt lat="44.5164" lon="6.82235">
        <ele>2173.1977539062</ele>
        <time>2011-01-14T14:02:57Z</time>
      </trkpt>
      <trkpt lat="44.51646" lon="6.82227">
        <ele>2171.2746582031</ele>
        <time>2011-01-14T14:02:59Z</time>
      </trkpt>
      <trkpt lat="44.51648" lon="6.82223">
        <ele>2169.3522949219</ele>
        <time>2011-01-14T14:03:00Z</time>
      </trkpt>
      <trkpt lat="44.51649" lon="6.82213">
        <ele>2167.91015625</ele>
        <time>2011-01-14T14:03:05Z</time>
      </trkpt>
      <trkpt lat="44.5165" lon="6.82204">
        <ele>2166.4682617188</ele>
        <time>2011-01-14T14:03:08Z</time>
      </trkpt>
      <trkpt lat="44.51646" lon="6.82196">
        <ele>2162.623046875</ele>
        <time>2011-01-14T14:03:10Z</time>
      </trkpt>
      <trkpt lat="44.51642" lon="6.82195">
        <ele>2162.623046875</ele>
        <time>2011-01-14T14:03:11Z</time>
      </trkpt>
      <trkpt lat="44.51638" lon="6.82195">
        <ele>2163.1037597656</ele>
        <time>2011-01-14T14:03:12Z</time>
      </trkpt>
      <trkpt lat="44.51624" lon="6.82194">
        <ele>2160.7004394531</ele>
        <time>2011-01-14T14:03:21Z</time>
      </trkpt>
      <trkpt lat="44.51624" lon="6.82194">
        <ele>2160.7004394531</ele>
        <time>2011-01-14T14:03:24Z</time>
      </trkpt>
      <trkpt lat="44.51626" lon="6.82184">
        <ele>2158.7778320312</ele>
        <time>2011-01-14T14:03:29Z</time>
      </trkpt>
      <trkpt lat="44.51628" lon="6.82181">
        <ele>2157.3359375</ele>
        <time>2011-01-14T14:03:30Z</time>
      </trkpt>
      <trkpt lat="44.51648" lon="6.82161">
        <ele>2153.9711914062</ele>
        <time>2011-01-14T14:03:39Z</time>
      </trkpt>
      <trkpt lat="44.51651" lon="6.82159">
        <ele>2153.4904785156</ele>
        <time>2011-01-14T14:03:40Z</time>
      </trkpt>
      <trkpt lat="44.51669" lon="6.8214">
        <ele>2151.0871582031</ele>
        <time>2011-01-14T14:03:45Z</time>
      </trkpt>
      <trkpt lat="44.51674" lon="6.82139">
        <ele>2148.6838378906</ele>
        <time>2011-01-14T14:03:47Z</time>
      </trkpt>
      <trkpt lat="44.51674" lon="6.82139">
        <ele>2148.6838378906</ele>
        <time>2011-01-14T14:03:52Z</time>
      </trkpt>
      <trkpt lat="44.51678" lon="6.8213">
        <ele>2146.7612304688</ele>
        <time>2011-01-14T14:04:00Z</time>
      </trkpt>
      <trkpt lat="44.51679" lon="6.8213">
        <ele>2147.2419433594</ele>
        <time>2011-01-14T14:04:03Z</time>
      </trkpt>
      <trkpt lat="44.51667" lon="6.82109">
        <ele>2144.3579101562</ele>
        <time>2011-01-14T14:04:09Z</time>
      </trkpt>
      <trkpt lat="44.51665" lon="6.82101">
        <ele>2142.435546875</ele>
        <time>2011-01-14T14:04:11Z</time>
      </trkpt>
      <trkpt lat="44.51667" lon="6.82098">
        <ele>2140.5126953125</ele>
        <time>2011-01-14T14:04:12Z</time>
      </trkpt>
      <trkpt lat="44.51684" lon="6.82085">
        <ele>2139.0705566406</ele>
        <time>2011-01-14T14:04:24Z</time>
      </trkpt>
      <trkpt lat="44.51696" lon="6.82064">
        <ele>2137.1479492188</ele>
        <time>2011-01-14T14:04:32Z</time>
      </trkpt>
      <trkpt lat="44.51698" lon="6.82058">
        <ele>2136.1867675781</ele>
        <time>2011-01-14T14:04:33Z</time>
      </trkpt>
      <trkpt lat="44.51709" lon="6.8204">
        <ele>2134.2641601562</ele>
        <time>2011-01-14T14:04:36Z</time>
      </trkpt>
      <trkpt lat="44.51722" lon="6.82023">
        <ele>2131.3801269531</ele>
        <time>2011-01-14T14:04:39Z</time>
      </trkpt>
      <trkpt lat="44.51736" lon="6.81994">
        <ele>2128.9768066406</ele>
        <time>2011-01-14T14:04:46Z</time>
      </trkpt>
      <trkpt lat="44.51751" lon="6.81965">
        <ele>2126.0930175781</ele>
        <time>2011-01-14T14:04:52Z</time>
      </trkpt>
      <trkpt lat="44.5176" lon="6.81952">
        <ele>2124.1704101562</ele>
        <time>2011-01-14T14:04:54Z</time>
      </trkpt>
      <trkpt lat="44.51764" lon="6.81945">
        <ele>2122.2475585938</ele>
        <time>2011-01-14T14:04:55Z</time>
      </trkpt>
      <trkpt lat="44.51771" lon="6.8193">
        <ele>2120.8056640625</ele>
        <time>2011-01-14T14:04:57Z</time>
      </trkpt>
      <trkpt lat="44.5178" lon="6.81923">
        <ele>2118.8830566406</ele>
        <time>2011-01-14T14:04:59Z</time>
      </trkpt>
      <trkpt lat="44.51786" lon="6.81932">
        <ele>2117.4409179688</ele>
        <time>2011-01-14T14:05:01Z</time>
      </trkpt>
      <trkpt lat="44.51786" lon="6.81936">
        <ele>2115.5185546875</ele>
        <time>2011-01-14T14:05:04Z</time>
      </trkpt>
      <trkpt lat="44.5179" lon="6.81932">
        <ele>2115.0378417969</ele>
        <time>2011-01-14T14:05:18Z</time>
      </trkpt>
      <trkpt lat="44.51794" lon="6.81926">
        <ele>2115.0378417969</ele>
        <time>2011-01-14T14:05:31Z</time>
      </trkpt>
      <trkpt lat="44.51809" lon="6.81914">
        <ele>2113.115234375</ele>
        <time>2011-01-14T14:05:42Z</time>
      </trkpt>
      <trkpt lat="44.51815" lon="6.81904">
        <ele>2111.1926269531</ele>
        <time>2011-01-14T14:05:45Z</time>
      </trkpt>
      <trkpt lat="44.51819" lon="6.81889">
        <ele>2109.7504882812</ele>
        <time>2011-01-14T14:05:48Z</time>
      </trkpt>
      <trkpt lat="44.5182" lon="6.81876">
        <ele>2108.30859375</ele>
        <time>2011-01-14T14:05:50Z</time>
      </trkpt>
      <trkpt lat="44.51821" lon="6.81861">
        <ele>2106.3857421875</ele>
        <time>2011-01-14T14:05:52Z</time>
      </trkpt>
      <trkpt lat="44.51823" lon="6.81844">
        <ele>2104.9438476562</ele>
        <time>2011-01-14T14:05:55Z</time>
      </trkpt>
      <trkpt lat="44.51828" lon="6.81837">
        <ele>2103.501953125</ele>
        <time>2011-01-14T14:05:57Z</time>
      </trkpt>
      <trkpt lat="44.51835" lon="6.81836">
        <ele>2102.0598144531</ele>
        <time>2011-01-14T14:06:04Z</time>
      </trkpt>
      <trkpt lat="44.51838" lon="6.81838">
        <ele>2101.5793457031</ele>
        <time>2011-01-14T14:06:08Z</time>
      </trkpt>
      <trkpt lat="44.51842" lon="6.81839">
        <ele>2100.6179199219</ele>
        <time>2011-01-14T14:06:26Z</time>
      </trkpt>
      <trkpt lat="44.51842" lon="6.81838">
        <ele>2101.0986328125</ele>
        <time>2011-01-14T14:07:06Z</time>
      </trkpt>
      <trkpt lat="44.51845" lon="6.8183">
        <ele>2099.6567382812</ele>
        <time>2011-01-14T14:07:10Z</time>
      </trkpt>
      <trkpt lat="44.5184" lon="6.81812">
        <ele>2096.7727050781</ele>
        <time>2011-01-14T14:07:15Z</time>
      </trkpt>
      <trkpt lat="44.51835" lon="6.81805">
        <ele>2095.8115234375</ele>
        <time>2011-01-14T14:07:17Z</time>
      </trkpt>
      <trkpt lat="44.51825" lon="6.81784">
        <ele>2093.408203125</ele>
        <time>2011-01-14T14:07:25Z</time>
      </trkpt>
      <trkpt lat="44.51824" lon="6.81776">
        <ele>2092.9274902344</ele>
        <time>2011-01-14T14:07:27Z</time>
      </trkpt>
      <trkpt lat="44.5183" lon="6.8176">
        <ele>2091.0046386719</ele>
        <time>2011-01-14T14:07:30Z</time>
      </trkpt>
      <trkpt lat="44.51837" lon="6.81752">
        <ele>2088.1208496094</ele>
        <time>2011-01-14T14:07:32Z</time>
      </trkpt>
      <trkpt lat="44.51841" lon="6.81749">
        <ele>2088.1208496094</ele>
        <time>2011-01-14T14:07:33Z</time>
      </trkpt>
      <trkpt lat="44.51854" lon="6.81747">
        <ele>2086.1982421875</ele>
        <time>2011-01-14T14:07:36Z</time>
      </trkpt>
      <trkpt lat="44.51862" lon="6.81749">
        <ele>2084.7563476562</ele>
        <time>2011-01-14T14:07:38Z</time>
      </trkpt>
      <trkpt lat="44.51866" lon="6.81742">
        <ele>2083.3142089844</ele>
        <time>2011-01-14T14:07:45Z</time>
      </trkpt>
      <trkpt lat="44.51878" lon="6.81736">
        <ele>2081.8723144531</ele>
        <time>2011-01-14T14:07:51Z</time>
      </trkpt>
      <trkpt lat="44.51886" lon="6.81732">
        <ele>2080.9111328125</ele>
        <time>2011-01-14T14:07:53Z</time>
      </trkpt>
      <trkpt lat="44.51893" lon="6.81719">
        <ele>2078.0270996094</ele>
        <time>2011-01-14T14:07:56Z</time>
      </trkpt>
      <trkpt lat="44.519" lon="6.81714">
        <ele>2076.1044921875</ele>
        <time>2011-01-14T14:07:58Z</time>
      </trkpt>
      <trkpt lat="44.51903" lon="6.81707">
        <ele>2074.181640625</ele>
        <time>2011-01-14T14:08:00Z</time>
      </trkpt>
      <trkpt lat="44.51904" lon="6.81707">
        <ele>2073.2204589844</ele>
        <time>2011-01-14T14:08:15Z</time>
      </trkpt>
      <trkpt lat="44.51904" lon="6.81704">
        <ele>2072.7397460938</ele>
        <time>2011-01-14T14:08:19Z</time>
      </trkpt>
      <trkpt lat="44.51894" lon="6.81679">
        <ele>2071.2976074219</ele>
        <time>2011-01-14T14:08:30Z</time>
      </trkpt>
      <trkpt lat="44.5188" lon="6.81663">
        <ele>2068.89453125</ele>
        <time>2011-01-14T14:08:35Z</time>
      </trkpt>
      <trkpt lat="44.5188" lon="6.81658">
        <ele>2067.9331054688</ele>
        <time>2011-01-14T14:08:37Z</time>
      </trkpt>
      <trkpt lat="44.51892" lon="6.8165">
        <ele>2065.5300292969</ele>
        <time>2011-01-14T14:08:42Z</time>
      </trkpt>
      <trkpt lat="44.51899" lon="6.81638">
        <ele>2063.6071777344</ele>
        <time>2011-01-14T14:08:45Z</time>
      </trkpt>
      <trkpt lat="44.51914" lon="6.81624">
        <ele>2061.2041015625</ele>
        <time>2011-01-14T14:08:51Z</time>
      </trkpt>
      <trkpt lat="44.51924" lon="6.81613">
        <ele>2058.8005371094</ele>
        <time>2011-01-14T14:08:54Z</time>
      </trkpt>
      <trkpt lat="44.51937" lon="6.81604">
        <ele>2054.9553222656</ele>
        <time>2011-01-14T14:08:58Z</time>
      </trkpt>
      <trkpt lat="44.51944" lon="6.81595">
        <ele>2052.0712890625</ele>
        <time>2011-01-14T14:09:01Z</time>
      </trkpt>
      <trkpt lat="44.51949" lon="6.81589">
        <ele>2050.1489257812</ele>
        <time>2011-01-14T14:09:04Z</time>
      </trkpt>
      <trkpt lat="44.51959" lon="6.81573">
        <ele>2047.7456054688</ele>
        <time>2011-01-14T14:09:08Z</time>
      </trkpt>
      <trkpt lat="44.51961" lon="6.81544">
        <ele>2044.8615722656</ele>
        <time>2011-01-14T14:09:14Z</time>
      </trkpt>
      <trkpt lat="44.51971" lon="6.81527">
        <ele>2039.57421875</ele>
        <time>2011-01-14T14:09:18Z</time>
      </trkpt>
      <trkpt lat="44.51971" lon="6.81522">
        <ele>2039.57421875</ele>
        <time>2011-01-14T14:09:19Z</time>
      </trkpt>
      <trkpt lat="44.51972" lon="6.8151">
        <ele>2038.6130371094</ele>
        <time>2011-01-14T14:09:21Z</time>
      </trkpt>
      <trkpt lat="44.51977" lon="6.81503">
        <ele>2036.6901855469</ele>
        <time>2011-01-14T14:09:23Z</time>
      </trkpt>
      <trkpt lat="44.51987" lon="6.81504">
        <ele>2032.3645019531</ele>
        <time>2011-01-14T14:09:25Z</time>
      </trkpt>
      <trkpt lat="44.51992" lon="6.81503">
        <ele>2032.3645019531</ele>
        <time>2011-01-14T14:09:26Z</time>
      </trkpt>
      <trkpt lat="44.52003" lon="6.81496">
        <ele>2030.9226074219</ele>
        <time>2011-01-14T14:09:28Z</time>
      </trkpt>
      <trkpt lat="44.52014" lon="6.81484">
        <ele>2028.5192871094</ele>
        <time>2011-01-14T14:09:30Z</time>
      </trkpt>
      <trkpt lat="44.52023" lon="6.81473">
        <ele>2026.1157226562</ele>
        <time>2011-01-14T14:09:33Z</time>
      </trkpt>
      <trkpt lat="44.52025" lon="6.81469">
        <ele>2026.5964355469</ele>
        <time>2011-01-14T14:09:42Z</time>
      </trkpt>
      <trkpt lat="44.52029" lon="6.81455">
        <ele>2026.1157226562</ele>
        <time>2011-01-14T14:10:00Z</time>
      </trkpt>
      <trkpt lat="44.52031" lon="6.81447">
        <ele>2027.0771484375</ele>
        <time>2011-01-14T14:10:19Z</time>
      </trkpt>
      <trkpt lat="44.52032" lon="6.81442">
        <ele>2026.5964355469</ele>
        <time>2011-01-14T14:10:26Z</time>
      </trkpt>
      <trkpt lat="44.52051" lon="6.81414">
        <ele>2024.1931152344</ele>
        <time>2011-01-14T14:10:42Z</time>
      </trkpt>
      <trkpt lat="44.52074" lon="6.81389">
        <ele>2022.2705078125</ele>
        <time>2011-01-14T14:10:55Z</time>
      </trkpt>
      <trkpt lat="44.52093" lon="6.81373">
        <ele>2019.8671875</ele>
        <time>2011-01-14T14:11:03Z</time>
      </trkpt>
      <trkpt lat="44.52113" lon="6.81362">
        <ele>2017.9445800781</ele>
        <time>2011-01-14T14:11:10Z</time>
      </trkpt>
      <trkpt lat="44.52144" lon="6.81342">
        <ele>2014.580078125</ele>
        <time>2011-01-14T14:11:19Z</time>
      </trkpt>
      <trkpt lat="44.52148" lon="6.81339">
        <ele>2014.580078125</ele>
        <time>2011-01-14T14:11:20Z</time>
      </trkpt>
      <trkpt lat="44.52158" lon="6.81329">
        <ele>2012.6574707031</ele>
        <time>2011-01-14T14:11:23Z</time>
      </trkpt>
      <trkpt lat="44.5217" lon="6.81314">
        <ele>2010.25390625</ele>
        <time>2011-01-14T14:11:26Z</time>
      </trkpt>
      <trkpt lat="44.52184" lon="6.81292">
        <ele>2008.3312988281</ele>
        <time>2011-01-14T14:11:30Z</time>
      </trkpt>
      <trkpt lat="44.52189" lon="6.81283">
        <ele>2006.8894042969</ele>
        <time>2011-01-14T14:11:32Z</time>
      </trkpt>
      <trkpt lat="44.52192" lon="6.81278">
        <ele>2005.9279785156</ele>
        <time>2011-01-14T14:11:33Z</time>
      </trkpt>
      <trkpt lat="44.52206" lon="6.8124">
        <ele>2003.0441894531</ele>
        <time>2011-01-14T14:11:41Z</time>
      </trkpt>
      <trkpt lat="44.52209" lon="6.81237">
        <ele>2001.6022949219</ele>
        <time>2011-01-14T14:11:52Z</time>
      </trkpt>
      <trkpt lat="44.52216" lon="6.81222">
        <ele>2000.1604003906</ele>
        <time>2011-01-14T14:12:30Z</time>
      </trkpt>
      <trkpt lat="44.52218" lon="6.81217">
        <ele>1999.1989746094</ele>
        <time>2011-01-14T14:12:31Z</time>
      </trkpt>
      <trkpt lat="44.52229" lon="6.81199">
        <ele>1996.7956542969</ele>
        <time>2011-01-14T14:12:34Z</time>
      </trkpt>
      <trkpt lat="44.5224" lon="6.81187">
        <ele>1991.9890136719</ele>
        <time>2011-01-14T14:12:36Z</time>
      </trkpt>
      <trkpt lat="44.52245" lon="6.8118">
        <ele>1991.9890136719</ele>
        <time>2011-01-14T14:12:37Z</time>
      </trkpt>
      <trkpt lat="44.52254" lon="6.81166">
        <ele>1990.06640625</ele>
        <time>2011-01-14T14:12:39Z</time>
      </trkpt>
      <trkpt lat="44.52258" lon="6.8116">
        <ele>1988.6245117188</ele>
        <time>2011-01-14T14:12:40Z</time>
      </trkpt>
      <trkpt lat="44.5227" lon="6.81149">
        <ele>1987.1823730469</ele>
        <time>2011-01-14T14:12:46Z</time>
      </trkpt>
      <trkpt lat="44.52273" lon="6.81141">
        <ele>1986.2211914062</ele>
        <time>2011-01-14T14:12:49Z</time>
      </trkpt>
      <trkpt lat="44.52279" lon="6.81132">
        <ele>1983.8178710938</ele>
        <time>2011-01-14T14:12:51Z</time>
      </trkpt>
      <trkpt lat="44.52284" lon="6.81122">
        <ele>1982.3759765625</ele>
        <time>2011-01-14T14:12:53Z</time>
      </trkpt>
      <trkpt lat="44.52292" lon="6.81114">
        <ele>1979.4916992188</ele>
        <time>2011-01-14T14:12:55Z</time>
      </trkpt>
      <trkpt lat="44.52304" lon="6.81102">
        <ele>1976.6079101562</ele>
        <time>2011-01-14T14:12:58Z</time>
      </trkpt>
      <trkpt lat="44.52308" lon="6.81091">
        <ele>1975.646484375</ele>
        <time>2011-01-14T14:13:01Z</time>
      </trkpt>
      <trkpt lat="44.5231" lon="6.81074">
        <ele>1970.359375</ele>
        <time>2011-01-14T14:13:04Z</time>
      </trkpt>
      <trkpt lat="44.52313" lon="6.81069">
        <ele>1970.359375</ele>
        <time>2011-01-14T14:13:05Z</time>
      </trkpt>
      <trkpt lat="44.52318" lon="6.81061">
        <ele>1968.4367675781</ele>
        <time>2011-01-14T14:13:07Z</time>
      </trkpt>
      <trkpt lat="44.52323" lon="6.81053">
        <ele>1967.4753417969</ele>
        <time>2011-01-14T14:13:09Z</time>
      </trkpt>
      <trkpt lat="44.52325" lon="6.81037">
        <ele>1966.0334472656</ele>
        <time>2011-01-14T14:13:11Z</time>
      </trkpt>
      <trkpt lat="44.52335" lon="6.81014">
        <ele>1961.2268066406</ele>
        <time>2011-01-14T14:13:14Z</time>
      </trkpt>
      <trkpt lat="44.52344" lon="6.81">
        <ele>1960.2653808594</ele>
        <time>2011-01-14T14:13:21Z</time>
      </trkpt>
      <trkpt lat="44.5235" lon="6.80999">
        <ele>1959.7846679688</ele>
        <time>2011-01-14T14:13:35Z</time>
      </trkpt>
      <trkpt lat="44.5235" lon="6.80998">
        <ele>1959.7846679688</ele>
        <time>2011-01-14T14:14:33Z</time>
      </trkpt>
      <trkpt lat="44.52356" lon="6.80998">
        <ele>1958.8234863281</ele>
        <time>2011-01-14T14:14:36Z</time>
      </trkpt>
      <trkpt lat="44.52365" lon="6.80999">
        <ele>1956.9008789062</ele>
        <time>2011-01-14T14:14:38Z</time>
      </trkpt>
      <trkpt lat="44.52372" lon="6.80999">
        <ele>1955.458984375</ele>
        <time>2011-01-14T14:14:39Z</time>
      </trkpt>
      <trkpt lat="44.52392" lon="6.8099">
        <ele>1953.0556640625</ele>
        <time>2011-01-14T14:14:42Z</time>
      </trkpt>
      <trkpt lat="44.52405" lon="6.80977">
        <ele>1948.2490234375</ele>
        <time>2011-01-14T14:14:44Z</time>
      </trkpt>
      <trkpt lat="44.52411" lon="6.8097">
        <ele>1948.2490234375</ele>
        <time>2011-01-14T14:14:45Z</time>
      </trkpt>
      <trkpt lat="44.52416" lon="6.80963">
        <ele>1946.3264160156</ele>
        <time>2011-01-14T14:14:46Z</time>
      </trkpt>
      <trkpt lat="44.52428" lon="6.80944">
        <ele>1944.8842773438</ele>
        <time>2011-01-14T14:14:49Z</time>
      </trkpt>
      <trkpt lat="44.52451" lon="6.80893">
        <ele>1941.5197753906</ele>
        <time>2011-01-14T14:14:59Z</time>
      </trkpt>
      <trkpt lat="44.52455" lon="6.80881">
        <ele>1941.0390625</ele>
        <time>2011-01-14T14:15:01Z</time>
      </trkpt>
      <trkpt lat="44.52461" lon="6.80863">
        <ele>1940.0778808594</ele>
        <time>2011-01-14T14:15:09Z</time>
      </trkpt>
      <trkpt lat="44.52459" lon="6.80851">
        <ele>1938.6359863281</ele>
        <time>2011-01-14T14:15:12Z</time>
      </trkpt>
      <trkpt lat="44.52462" lon="6.80834">
        <ele>1932.3874511719</ele>
        <time>2011-01-14T14:15:14Z</time>
      </trkpt>
      <trkpt lat="44.52466" lon="6.80827">
        <ele>1932.3874511719</ele>
        <time>2011-01-14T14:15:15Z</time>
      </trkpt>
      <trkpt lat="44.52469" lon="6.80821">
        <ele>1929.5031738281</ele>
        <time>2011-01-14T14:15:16Z</time>
      </trkpt>
      <trkpt lat="44.52478" lon="6.80796">
        <ele>1928.0612792969</ele>
        <time>2011-01-14T14:15:19Z</time>
      </trkpt>
      <trkpt lat="44.52494" lon="6.80778">
        <ele>1924.2160644531</ele>
        <time>2011-01-14T14:15:22Z</time>
      </trkpt>
      <trkpt lat="44.52505" lon="6.80768">
        <ele>1922.2934570312</ele>
        <time>2011-01-14T14:15:24Z</time>
      </trkpt>
      <trkpt lat="44.52524" lon="6.80746">
        <ele>1919.8901367188</ele>
        <time>2011-01-14T14:15:28Z</time>
      </trkpt>
      <trkpt lat="44.52546" lon="6.80688">
        <ele>1919.4096679688</ele>
        <time>2011-01-14T14:15:39Z</time>
      </trkpt>
      <trkpt lat="44.52556" lon="6.80643">
        <ele>1919.4096679688</ele>
        <time>2011-01-14T14:15:52Z</time>
      </trkpt>
      <trkpt lat="44.52559" lon="6.80611">
        <ele>1920.3708496094</ele>
        <time>2011-01-14T14:16:05Z</time>
      </trkpt>
      <trkpt lat="44.52562" lon="6.80575">
        <ele>1918.4482421875</ele>
        <time>2011-01-14T14:16:19Z</time>
      </trkpt>
      <trkpt lat="44.52569" lon="6.80538">
        <ele>1917.4868164062</ele>
        <time>2011-01-14T14:16:32Z</time>
      </trkpt>
      <trkpt lat="44.52583" lon="6.805">
        <ele>1916.044921875</ele>
        <time>2011-01-14T14:16:44Z</time>
      </trkpt>
      <trkpt lat="44.52589" lon="6.80478">
        <ele>1913.1608886719</ele>
        <time>2011-01-14T14:16:49Z</time>
      </trkpt>
      <trkpt lat="44.52597" lon="6.80445">
        <ele>1911.23828125</ele>
        <time>2011-01-14T14:16:54Z</time>
      </trkpt>
      <trkpt lat="44.52599" lon="6.80437">
        <ele>1909.7961425781</ele>
        <time>2011-01-14T14:16:55Z</time>
      </trkpt>
      <trkpt lat="44.526" lon="6.80421">
        <ele>1908.8349609375</ele>
        <time>2011-01-14T14:16:57Z</time>
      </trkpt>
      <trkpt lat="44.52598" lon="6.80405">
        <ele>1908.3542480469</ele>
        <time>2011-01-14T14:16:59Z</time>
      </trkpt>
      <trkpt lat="44.52597" lon="6.80363">
        <ele>1907.3930664062</ele>
        <time>2011-01-14T14:17:10Z</time>
      </trkpt>
      <trkpt lat="44.52595" lon="6.8034">
        <ele>1906.9123535156</ele>
        <time>2011-01-14T14:17:27Z</time>
      </trkpt>
      <trkpt lat="44.52594" lon="6.80293">
        <ele>1904.5090332031</ele>
        <time>2011-01-14T14:17:35Z</time>
      </trkpt>
      <trkpt lat="44.52585" lon="6.80255">
        <ele>1903.0671386719</ele>
        <time>2011-01-14T14:17:46Z</time>
      </trkpt>
      <trkpt lat="44.5258" lon="6.80235">
        <ele>1903.5478515625</ele>
        <time>2011-01-14T14:18:18Z</time>
      </trkpt>
      <trkpt lat="44.52573" lon="6.80218">
        <ele>1903.0671386719</ele>
        <time>2011-01-14T14:18:26Z</time>
      </trkpt>
      <trkpt lat="44.52565" lon="6.80184">
        <ele>1902.5864257812</ele>
        <time>2011-01-14T14:18:41Z</time>
      </trkpt>
      <trkpt lat="44.52561" lon="6.80167">
        <ele>1902.5864257812</ele>
        <time>2011-01-14T14:18:50Z</time>
      </trkpt>
      <trkpt lat="44.52557" lon="6.80159">
        <ele>1902.1057128906</ele>
        <time>2011-01-14T14:18:52Z</time>
      </trkpt>
    </trkseg>
  </trk>
</gpx>